<?xml version="1.0" encoding="UTF-8" standalone="no" ?>
<gpx xmlns="http://www.topografix.com/GPX/1/1" xmlns:xsi="http://www.w3.org/2001/XMLSchema-instance" xsi:schemaLocation="http://www.topografix.com/GPX/1/1 http://www.topografix.com/GPX/1/1/gpx.xsd" version="1.1" creator="VisuGPX - https://www.visugpx.com">
  <metadata>
    <name>Cabellou GR 34</name>
    <desc><![CDATA[sentier côtier entre Concarneau est la pointe de Trévignon ]]></desc>
  </metadata>
  <trk>
    <name><![CDATA[20190319144148-qqtNg]]></name>
    <trkseg>
      <trkpt lat="47.85467" lon="-3.89871">
        <ele>8</ele>
        <time>2019-03-19T14:40:19Z</time>
      </trkpt>
      <trkpt lat="47.8546" lon="-3.89898">
        <ele>8</ele>
        <time>2019-03-19T14:41:19Z</time>
      </trkpt>
      <trkpt lat="47.85449" lon="-3.89875">
        <ele>8</ele>
        <time>2019-03-19T14:42:19Z</time>
      </trkpt>
      <trkpt lat="47.85433" lon="-3.89818">
        <ele>7</ele>
        <time>2019-03-19T14:43:19Z</time>
      </trkpt>
      <trkpt lat="47.85469" lon="-3.89723">
        <ele>9</ele>
        <time>2019-03-19T14:44:19Z</time>
      </trkpt>
      <trkpt lat="47.85487" lon="-3.89689">
        <ele>9</ele>
        <time>2019-03-19T14:45:19Z</time>
      </trkpt>
      <trkpt lat="47.85486" lon="-3.89689">
        <ele>9</ele>
        <time>2019-03-19T14:46:19Z</time>
      </trkpt>
      <trkpt lat="47.85456" lon="-3.89635">
        <ele>9</ele>
        <time>2019-03-19T14:47:19Z</time>
      </trkpt>
      <trkpt lat="47.8545" lon="-3.89618">
        <ele>8</ele>
        <time>2019-03-19T14:48:19Z</time>
      </trkpt>
      <trkpt lat="47.85423" lon="-3.89596">
        <ele>7</ele>
        <time>2019-03-19T14:49:19Z</time>
      </trkpt>
      <trkpt lat="47.85408" lon="-3.89626">
        <ele>7</ele>
        <time>2019-03-19T14:50:19Z</time>
      </trkpt>
      <trkpt lat="47.85387" lon="-3.89652">
        <ele>7</ele>
        <time>2019-03-19T14:51:19Z</time>
      </trkpt>
      <trkpt lat="47.85353" lon="-3.89546">
        <ele>5</ele>
        <time>2019-03-19T14:52:19Z</time>
      </trkpt>
      <trkpt lat="47.85352" lon="-3.89517">
        <ele>5</ele>
        <time>2019-03-19T14:53:19Z</time>
      </trkpt>
      <trkpt lat="47.85333" lon="-3.89504">
        <ele>5</ele>
        <time>2019-03-19T14:54:19Z</time>
      </trkpt>
      <trkpt lat="47.85328" lon="-3.89495">
        <ele>5</ele>
        <time>2019-03-19T14:55:19Z</time>
      </trkpt>
      <trkpt lat="47.85326" lon="-3.89483">
        <ele>5</ele>
        <time>2019-03-19T14:56:19Z</time>
      </trkpt>
      <trkpt lat="47.85326" lon="-3.89469">
        <ele>4</ele>
        <time>2019-03-19T14:57:19Z</time>
      </trkpt>
      <trkpt lat="47.85329" lon="-3.8945">
        <ele>4</ele>
        <time>2019-03-19T14:58:19Z</time>
      </trkpt>
      <trkpt lat="47.85323" lon="-3.89433">
        <ele>4</ele>
        <time>2019-03-19T14:59:19Z</time>
      </trkpt>
      <trkpt lat="47.8533" lon="-3.89403">
        <ele>4</ele>
        <time>2019-03-19T15:00:19Z</time>
      </trkpt>
      <trkpt lat="47.8533" lon="-3.89373">
        <ele>3</ele>
        <time>2019-03-19T15:01:19Z</time>
      </trkpt>
      <trkpt lat="47.85324" lon="-3.89362">
        <ele>3</ele>
        <time>2019-03-19T15:02:19Z</time>
      </trkpt>
      <trkpt lat="47.85294" lon="-3.89346">
        <ele>3</ele>
        <time>2019-03-19T15:03:19Z</time>
      </trkpt>
      <trkpt lat="47.85274" lon="-3.89324">
        <ele>4</ele>
        <time>2019-03-19T15:04:19Z</time>
      </trkpt>
      <trkpt lat="47.85277" lon="-3.89295">
        <ele>4</ele>
        <time>2019-03-19T15:05:19Z</time>
      </trkpt>
      <trkpt lat="47.85282" lon="-3.8928">
        <ele>4</ele>
        <time>2019-03-19T15:06:19Z</time>
      </trkpt>
      <trkpt lat="47.85286" lon="-3.89273">
        <ele>4</ele>
        <time>2019-03-19T15:07:19Z</time>
      </trkpt>
      <trkpt lat="47.85293" lon="-3.89271">
        <ele>3</ele>
        <time>2019-03-19T15:08:19Z</time>
      </trkpt>
      <trkpt lat="47.85316" lon="-3.89281">
        <ele>3</ele>
        <time>2019-03-19T15:09:19Z</time>
      </trkpt>
      <trkpt lat="47.85334" lon="-3.89292">
        <ele>3</ele>
        <time>2019-03-19T15:10:19Z</time>
      </trkpt>
      <trkpt lat="47.85357" lon="-3.89294">
        <ele>4</ele>
        <time>2019-03-19T15:11:19Z</time>
      </trkpt>
      <trkpt lat="47.85373" lon="-3.89274">
        <ele>5</ele>
        <time>2019-03-19T15:12:19Z</time>
      </trkpt>
      <trkpt lat="47.85403" lon="-3.89266">
        <ele>6</ele>
        <time>2019-03-19T15:13:19Z</time>
      </trkpt>
      <trkpt lat="47.85417" lon="-3.89225">
        <ele>5</ele>
        <time>2019-03-19T15:14:19Z</time>
      </trkpt>
      <trkpt lat="47.85427" lon="-3.89217">
        <ele>6</ele>
        <time>2019-03-19T15:15:19Z</time>
      </trkpt>
      <trkpt lat="47.85416" lon="-3.89192">
        <ele>5</ele>
        <time>2019-03-19T15:16:19Z</time>
      </trkpt>
      <trkpt lat="47.85442" lon="-3.8913">
        <ele>5</ele>
        <time>2019-03-19T15:17:19Z</time>
      </trkpt>
      <trkpt lat="47.85465" lon="-3.89131">
        <ele>6</ele>
        <time>2019-03-19T15:18:19Z</time>
      </trkpt>
      <trkpt lat="47.85469" lon="-3.89127">
        <ele>6</ele>
        <time>2019-03-19T15:19:19Z</time>
      </trkpt>
      <trkpt lat="47.85473" lon="-3.89113">
        <ele>6</ele>
        <time>2019-03-19T15:20:19Z</time>
      </trkpt>
      <trkpt lat="47.85469" lon="-3.89085">
        <ele>6</ele>
        <time>2019-03-19T15:21:19Z</time>
      </trkpt>
      <trkpt lat="47.85471" lon="-3.89047">
        <ele>5</ele>
        <time>2019-03-19T15:22:19Z</time>
      </trkpt>
      <trkpt lat="47.85477" lon="-3.89016">
        <ele>5</ele>
        <time>2019-03-19T15:23:19Z</time>
      </trkpt>
      <trkpt lat="47.85496" lon="-3.88993">
        <ele>5</ele>
        <time>2019-03-19T15:24:19Z</time>
      </trkpt>
      <trkpt lat="47.85508" lon="-3.88967">
        <ele>5</ele>
        <time>2019-03-19T15:25:19Z</time>
      </trkpt>
      <trkpt lat="47.85525" lon="-3.88961">
        <ele>6</ele>
        <time>2019-03-19T15:26:19Z</time>
      </trkpt>
      <trkpt lat="47.85535" lon="-3.88938">
        <ele>7</ele>
        <time>2019-03-19T15:27:19Z</time>
      </trkpt>
      <trkpt lat="47.85533" lon="-3.88904">
        <ele>6</ele>
        <time>2019-03-19T15:28:19Z</time>
      </trkpt>
      <trkpt lat="47.85547" lon="-3.88856">
        <ele>6</ele>
        <time>2019-03-19T15:29:19Z</time>
      </trkpt>
      <trkpt lat="47.85547" lon="-3.88824">
        <ele>5</ele>
        <time>2019-03-19T15:30:19Z</time>
      </trkpt>
      <trkpt lat="47.85565" lon="-3.88789">
        <ele>5</ele>
        <time>2019-03-19T15:31:19Z</time>
      </trkpt>
      <trkpt lat="47.85576" lon="-3.88783">
        <ele>6</ele>
        <time>2019-03-19T15:32:19Z</time>
      </trkpt>
      <trkpt lat="47.85585" lon="-3.88774">
        <ele>6</ele>
        <time>2019-03-19T15:33:19Z</time>
      </trkpt>
      <trkpt lat="47.85591" lon="-3.8875">
        <ele>5</ele>
        <time>2019-03-19T15:34:19Z</time>
      </trkpt>
      <trkpt lat="47.856" lon="-3.88742">
        <ele>6</ele>
        <time>2019-03-19T15:35:19Z</time>
      </trkpt>
      <trkpt lat="47.85615" lon="-3.88737">
        <ele>7</ele>
        <time>2019-03-19T15:36:19Z</time>
      </trkpt>
      <trkpt lat="47.85638" lon="-3.88709">
        <ele>7</ele>
        <time>2019-03-19T15:37:19Z</time>
      </trkpt>
      <trkpt lat="47.85643" lon="-3.8869">
        <ele>6</ele>
        <time>2019-03-19T15:38:19Z</time>
      </trkpt>
      <trkpt lat="47.85668" lon="-3.8869">
        <ele>6</ele>
        <time>2019-03-19T15:39:19Z</time>
      </trkpt>
      <trkpt lat="47.85704" lon="-3.88731">
        <ele>9</ele>
        <time>2019-03-19T15:40:19Z</time>
      </trkpt>
      <trkpt lat="47.85758" lon="-3.88688">
        <ele>6</ele>
        <time>2019-03-19T15:41:19Z</time>
      </trkpt>
      <trkpt lat="47.85746" lon="-3.8867">
        <ele>4</ele>
        <time>2019-03-19T15:42:19Z</time>
      </trkpt>
      <trkpt lat="47.85713" lon="-3.88613">
        <ele>5</ele>
        <time>2019-03-19T15:43:19Z</time>
      </trkpt>
      <trkpt lat="47.85712" lon="-3.88578">
        <ele>6</ele>
        <time>2019-03-19T15:44:19Z</time>
      </trkpt>
      <trkpt lat="47.85675" lon="-3.88578">
        <ele>7</ele>
        <time>2019-03-19T15:45:19Z</time>
      </trkpt>
      <trkpt lat="47.85655" lon="-3.88549">
        <ele>9</ele>
        <time>2019-03-19T15:46:19Z</time>
      </trkpt>
      <trkpt lat="47.85616" lon="-3.88586">
        <ele>8</ele>
        <time>2019-03-19T15:47:19Z</time>
      </trkpt>
      <trkpt lat="47.85607" lon="-3.88637">
        <ele>6</ele>
        <time>2019-03-19T15:48:19Z</time>
      </trkpt>
      <trkpt lat="47.85591" lon="-3.88644">
        <ele>7</ele>
        <time>2019-03-19T15:49:19Z</time>
      </trkpt>
      <trkpt lat="47.85563" lon="-3.8863">
        <ele>7</ele>
        <time>2019-03-19T15:50:19Z</time>
      </trkpt>
      <trkpt lat="47.85528" lon="-3.88664">
        <ele>6</ele>
        <time>2019-03-19T15:51:19Z</time>
      </trkpt>
      <trkpt lat="47.8551" lon="-3.88661">
        <ele>6</ele>
        <time>2019-03-19T15:52:19Z</time>
      </trkpt>
      <trkpt lat="47.85491" lon="-3.88688">
        <ele>6</ele>
        <time>2019-03-19T15:53:19Z</time>
      </trkpt>
      <trkpt lat="47.85503" lon="-3.88741">
        <ele>5</ele>
        <time>2019-03-19T15:54:19Z</time>
      </trkpt>
      <trkpt lat="47.855" lon="-3.88765">
        <ele>4</ele>
        <time>2019-03-19T15:55:19Z</time>
      </trkpt>
      <trkpt lat="47.85491" lon="-3.88781">
        <ele>4</ele>
        <time>2019-03-19T15:56:19Z</time>
      </trkpt>
      <trkpt lat="47.85473" lon="-3.88774">
        <ele>4</ele>
        <time>2019-03-19T15:57:19Z</time>
      </trkpt>
      <trkpt lat="47.85462" lon="-3.88804">
        <ele>4</ele>
        <time>2019-03-19T15:58:19Z</time>
      </trkpt>
      <trkpt lat="47.85426" lon="-3.88776">
        <ele>5</ele>
        <time>2019-03-19T15:59:19Z</time>
      </trkpt>
      <trkpt lat="47.85393" lon="-3.88763">
        <ele>6</ele>
        <time>2019-03-19T16:00:19Z</time>
      </trkpt>
      <trkpt lat="47.85372" lon="-3.88737">
        <ele>7</ele>
        <time>2019-03-19T16:01:19Z</time>
      </trkpt>
      <trkpt lat="47.85358" lon="-3.88765">
        <ele>7</ele>
        <time>2019-03-19T16:02:19Z</time>
      </trkpt>
      <trkpt lat="47.85295" lon="-3.88769">
        <ele>10</ele>
        <time>2019-03-19T16:03:19Z</time>
      </trkpt>
      <trkpt lat="47.85283" lon="-3.88774">
        <ele>11</ele>
        <time>2019-03-19T16:04:19Z</time>
      </trkpt>
      <trkpt lat="47.85274" lon="-3.88775">
        <ele>11</ele>
        <time>2019-03-19T16:05:19Z</time>
      </trkpt>
      <trkpt lat="47.85246" lon="-3.88774">
        <ele>13</ele>
        <time>2019-03-19T16:06:19Z</time>
      </trkpt>
      <trkpt lat="47.85235" lon="-3.88777">
        <ele>13</ele>
        <time>2019-03-19T16:07:19Z</time>
      </trkpt>
      <trkpt lat="47.85238" lon="-3.88818">
        <ele>12</ele>
        <time>2019-03-19T16:08:19Z</time>
      </trkpt>
      <trkpt lat="47.85234" lon="-3.88839">
        <ele>12</ele>
        <time>2019-03-19T16:09:19Z</time>
      </trkpt>
      <trkpt lat="47.85224" lon="-3.88866">
        <ele>12</ele>
        <time>2019-03-19T16:10:19Z</time>
      </trkpt>
      <trkpt lat="47.8518" lon="-3.88964">
        <ele>12</ele>
        <time>2019-03-19T16:11:19Z</time>
      </trkpt>
      <trkpt lat="47.8523" lon="-3.89045">
        <ele>11</ele>
        <time>2019-03-19T16:12:19Z</time>
      </trkpt>
      <trkpt lat="47.85232" lon="-3.89056">
        <ele>11</ele>
        <time>2019-03-19T16:13:19Z</time>
      </trkpt>
      <trkpt lat="47.85193" lon="-3.89138">
        <ele>9</ele>
        <time>2019-03-19T16:14:19Z</time>
      </trkpt>
      <trkpt lat="47.85195" lon="-3.8914">
        <ele>9</ele>
        <time>2019-03-19T16:15:19Z</time>
      </trkpt>
      <trkpt lat="47.85193" lon="-3.89138">
        <ele>9</ele>
        <time>2019-03-19T16:16:19Z</time>
      </trkpt>
      <trkpt lat="47.8518" lon="-3.89149">
        <ele>9</ele>
        <time>2019-03-19T16:17:19Z</time>
      </trkpt>
      <trkpt lat="47.85164" lon="-3.89184">
        <ele>8</ele>
        <time>2019-03-19T16:18:19Z</time>
      </trkpt>
      <trkpt lat="47.85143" lon="-3.89245">
        <ele>7</ele>
        <time>2019-03-19T16:19:19Z</time>
      </trkpt>
      <trkpt lat="47.85098" lon="-3.89325">
        <ele>8</ele>
        <time>2019-03-19T16:20:19Z</time>
      </trkpt>
      <trkpt lat="47.85066" lon="-3.8937">
        <ele>7</ele>
        <time>2019-03-19T16:21:19Z</time>
      </trkpt>
      <trkpt lat="47.85041" lon="-3.89396">
        <ele>6</ele>
        <time>2019-03-19T16:22:19Z</time>
      </trkpt>
      <trkpt lat="47.85023" lon="-3.89421">
        <ele>5</ele>
        <time>2019-03-19T16:23:19Z</time>
      </trkpt>
      <trkpt lat="47.84994" lon="-3.89382">
        <ele>8</ele>
        <time>2019-03-19T16:24:19Z</time>
      </trkpt>
      <trkpt lat="47.84952" lon="-3.89466">
        <ele>3</ele>
        <time>2019-03-19T16:25:19Z</time>
      </trkpt>
      <trkpt lat="47.84948" lon="-3.89463">
        <ele>3</ele>
        <time>2019-03-19T16:26:19Z</time>
      </trkpt>
      <trkpt lat="47.84942" lon="-3.8945">
        <ele>3</ele>
        <time>2019-03-19T16:27:19Z</time>
      </trkpt>
      <trkpt lat="47.84944" lon="-3.89427">
        <ele>4</ele>
        <time>2019-03-19T16:28:19Z</time>
      </trkpt>
      <trkpt lat="47.84932" lon="-3.89369">
        <ele>4</ele>
        <time>2019-03-19T16:29:19Z</time>
      </trkpt>
      <trkpt lat="47.84934" lon="-3.89332">
        <ele>5</ele>
        <time>2019-03-19T16:30:19Z</time>
      </trkpt>
      <trkpt lat="47.84914" lon="-3.89292">
        <ele>4</ele>
        <time>2019-03-19T16:31:19Z</time>
      </trkpt>
      <trkpt lat="47.84903" lon="-3.89287">
        <ele>4</ele>
        <time>2019-03-19T16:32:19Z</time>
      </trkpt>
      <trkpt lat="47.84905" lon="-3.89268">
        <ele>4</ele>
        <time>2019-03-19T16:33:19Z</time>
      </trkpt>
      <trkpt lat="47.84905" lon="-3.89229">
        <ele>4</ele>
        <time>2019-03-19T16:34:19Z</time>
      </trkpt>
      <trkpt lat="47.84932" lon="-3.89176">
        <ele>5</ele>
        <time>2019-03-19T16:35:19Z</time>
      </trkpt>
      <trkpt lat="47.84941" lon="-3.8913">
        <ele>5</ele>
        <time>2019-03-19T16:36:19Z</time>
      </trkpt>
      <trkpt lat="47.84919" lon="-3.89078">
        <ele>3</ele>
        <time>2019-03-19T16:37:19Z</time>
      </trkpt>
      <trkpt lat="47.84937" lon="-3.89042">
        <ele>4</ele>
        <time>2019-03-19T16:38:19Z</time>
      </trkpt>
      <trkpt lat="47.84947" lon="-3.89006">
        <ele>5</ele>
        <time>2019-03-19T16:39:19Z</time>
      </trkpt>
      <trkpt lat="47.84964" lon="-3.88992">
        <ele>6</ele>
        <time>2019-03-19T16:40:19Z</time>
      </trkpt>
      <trkpt lat="47.84978" lon="-3.88922">
        <ele>6</ele>
        <time>2019-03-19T16:41:19Z</time>
      </trkpt>
      <trkpt lat="47.84979" lon="-3.88877">
        <ele>5</ele>
        <time>2019-03-19T16:42:19Z</time>
      </trkpt>
      <trkpt lat="47.84986" lon="-3.88847">
        <ele>5</ele>
        <time>2019-03-19T16:43:19Z</time>
      </trkpt>
      <trkpt lat="47.8499" lon="-3.88809">
        <ele>6</ele>
        <time>2019-03-19T16:44:19Z</time>
      </trkpt>
      <trkpt lat="47.84986" lon="-3.88789">
        <ele>5</ele>
        <time>2019-03-19T16:45:19Z</time>
      </trkpt>
      <trkpt lat="47.84974" lon="-3.88758">
        <ele>5</ele>
        <time>2019-03-19T16:46:19Z</time>
      </trkpt>
      <trkpt lat="47.84968" lon="-3.88698">
        <ele>5</ele>
        <time>2019-03-19T16:47:19Z</time>
      </trkpt>
      <trkpt lat="47.84965" lon="-3.88681">
        <ele>5</ele>
        <time>2019-03-19T16:48:19Z</time>
      </trkpt>
      <trkpt lat="47.84971" lon="-3.88681">
        <ele>5</ele>
        <time>2019-03-19T16:49:19Z</time>
      </trkpt>
      <trkpt lat="47.84965" lon="-3.88681">
        <ele>5</ele>
        <time>2019-03-19T16:50:19Z</time>
      </trkpt>
      <trkpt lat="47.84959" lon="-3.88678">
        <ele>5</ele>
        <time>2019-03-19T16:51:19Z</time>
      </trkpt>
      <trkpt lat="47.84924" lon="-3.88654">
        <ele>4</ele>
        <time>2019-03-19T16:52:19Z</time>
      </trkpt>
      <trkpt lat="47.84918" lon="-3.88643">
        <ele>4</ele>
        <time>2019-03-19T16:53:19Z</time>
      </trkpt>
      <trkpt lat="47.84885" lon="-3.88618">
        <ele>4</ele>
        <time>2019-03-19T16:54:19Z</time>
      </trkpt>
      <trkpt lat="47.84879" lon="-3.88624">
        <ele>5</ele>
        <time>2019-03-19T16:55:19Z</time>
      </trkpt>
      <trkpt lat="47.84858" lon="-3.8866">
        <ele>5</ele>
        <time>2019-03-19T16:56:19Z</time>
      </trkpt>
      <trkpt lat="47.84843" lon="-3.88673">
        <ele>6</ele>
        <time>2019-03-19T16:57:19Z</time>
      </trkpt>
      <trkpt lat="47.84842" lon="-3.88685">
        <ele>6</ele>
        <time>2019-03-19T16:58:19Z</time>
      </trkpt>
      <trkpt lat="47.84853" lon="-3.88718">
        <ele>5</ele>
        <time>2019-03-19T16:59:19Z</time>
      </trkpt>
      <trkpt lat="47.84848" lon="-3.88789">
        <ele>4</ele>
        <time>2019-03-19T17:00:19Z</time>
      </trkpt>
      <trkpt lat="47.84849" lon="-3.88821">
        <ele>3</ele>
        <time>2019-03-19T17:01:19Z</time>
      </trkpt>
      <trkpt lat="47.84844" lon="-3.88865">
        <ele>2</ele>
        <time>2019-03-19T17:02:19Z</time>
      </trkpt>
      <trkpt lat="47.84848" lon="-3.88875">
        <ele>2</ele>
        <time>2019-03-19T17:03:19Z</time>
      </trkpt>
      <trkpt lat="47.84847" lon="-3.88881">
        <ele>2</ele>
        <time>2019-03-19T17:04:19Z</time>
      </trkpt>
      <trkpt lat="47.84829" lon="-3.88882">
        <ele>3</ele>
        <time>2019-03-19T17:05:19Z</time>
      </trkpt>
      <trkpt lat="47.848" lon="-3.88893">
        <ele>4</ele>
        <time>2019-03-19T17:06:19Z</time>
      </trkpt>
      <trkpt lat="47.84791" lon="-3.889">
        <ele>4</ele>
        <time>2019-03-19T17:07:19Z</time>
      </trkpt>
      <trkpt lat="47.84773" lon="-3.88938">
        <ele>4</ele>
        <time>2019-03-19T17:08:19Z</time>
      </trkpt>
      <trkpt lat="47.84761" lon="-3.88978">
        <ele>4</ele>
        <time>2019-03-19T17:09:19Z</time>
      </trkpt>
      <trkpt lat="47.8476" lon="-3.89025">
        <ele>3</ele>
        <time>2019-03-19T17:10:19Z</time>
      </trkpt>
      <trkpt lat="47.84769" lon="-3.89048">
        <ele>3</ele>
        <time>2019-03-19T17:11:19Z</time>
      </trkpt>
      <trkpt lat="47.84778" lon="-3.89052">
        <ele>2</ele>
        <time>2019-03-19T17:12:19Z</time>
      </trkpt>
      <trkpt lat="47.84781" lon="-3.89062">
        <ele>2</ele>
        <time>2019-03-19T17:13:19Z</time>
      </trkpt>
      <trkpt lat="47.84783" lon="-3.89081">
        <ele>2</ele>
        <time>2019-03-19T17:14:19Z</time>
      </trkpt>
      <trkpt lat="47.84779" lon="-3.89098">
        <ele>2</ele>
        <time>2019-03-19T17:15:19Z</time>
      </trkpt>
      <trkpt lat="47.8477" lon="-3.8911">
        <ele>2</ele>
        <time>2019-03-19T17:16:19Z</time>
      </trkpt>
      <trkpt lat="47.84759" lon="-3.89109">
        <ele>2</ele>
        <time>2019-03-19T17:17:19Z</time>
      </trkpt>
      <trkpt lat="47.84721" lon="-3.89067">
        <ele>3</ele>
        <time>2019-03-19T17:18:19Z</time>
      </trkpt>
      <trkpt lat="47.84656" lon="-3.89047">
        <ele>5</ele>
        <time>2019-03-19T17:19:19Z</time>
      </trkpt>
      <trkpt lat="47.84632" lon="-3.89062">
        <ele>5</ele>
        <time>2019-03-19T17:20:19Z</time>
      </trkpt>
      <trkpt lat="47.84607" lon="-3.89072">
        <ele>6</ele>
        <time>2019-03-19T17:21:19Z</time>
      </trkpt>
      <trkpt lat="47.84582" lon="-3.89096">
        <ele>5</ele>
        <time>2019-03-19T17:22:19Z</time>
      </trkpt>
      <trkpt lat="47.84568" lon="-3.89105">
        <ele>5</ele>
        <time>2019-03-19T17:23:19Z</time>
      </trkpt>
      <trkpt lat="47.84557" lon="-3.89102">
        <ele>5</ele>
        <time>2019-03-19T17:24:19Z</time>
      </trkpt>
      <trkpt lat="47.84543" lon="-3.89115">
        <ele>4</ele>
        <time>2019-03-19T17:25:19Z</time>
      </trkpt>
      <trkpt lat="47.84525" lon="-3.89128">
        <ele>3</ele>
        <time>2019-03-19T17:26:19Z</time>
      </trkpt>
      <trkpt lat="47.84517" lon="-3.89131">
        <ele>3</ele>
        <time>2019-03-19T17:27:19Z</time>
      </trkpt>
      <trkpt lat="47.84509" lon="-3.89128">
        <ele>3</ele>
        <time>2019-03-19T17:28:19Z</time>
      </trkpt>
      <trkpt lat="47.84503" lon="-3.89124">
        <ele>4</ele>
        <time>2019-03-19T17:29:19Z</time>
      </trkpt>
      <trkpt lat="47.84496" lon="-3.89111">
        <ele>4</ele>
        <time>2019-03-19T17:30:19Z</time>
      </trkpt>
      <trkpt lat="47.84489" lon="-3.89089">
        <ele>5</ele>
        <time>2019-03-19T17:31:19Z</time>
      </trkpt>
      <trkpt lat="47.84484" lon="-3.89055">
        <ele>6</ele>
        <time>2019-03-19T17:32:19Z</time>
      </trkpt>
      <trkpt lat="47.84479" lon="-3.89034">
        <ele>7</ele>
        <time>2019-03-19T17:33:19Z</time>
      </trkpt>
      <trkpt lat="47.84473" lon="-3.89021">
        <ele>7</ele>
        <time>2019-03-19T17:34:19Z</time>
      </trkpt>
      <trkpt lat="47.8447" lon="-3.89018">
        <ele>8</ele>
        <time>2019-03-19T17:35:19Z</time>
      </trkpt>
      <trkpt lat="47.84427" lon="-3.88988">
        <ele>8</ele>
        <time>2019-03-19T17:36:19Z</time>
      </trkpt>
      <trkpt lat="47.84397" lon="-3.88952">
        <ele>9</ele>
        <time>2019-03-19T17:37:19Z</time>
      </trkpt>
      <trkpt lat="47.8439" lon="-3.88969">
        <ele>9</ele>
        <time>2019-03-19T17:38:19Z</time>
      </trkpt>
      <trkpt lat="47.84391" lon="-3.88983">
        <ele>8</ele>
        <time>2019-03-19T17:39:19Z</time>
      </trkpt>
      <trkpt lat="47.84396" lon="-3.88997">
        <ele>8</ele>
        <time>2019-03-19T17:40:19Z</time>
      </trkpt>
      <trkpt lat="47.84419" lon="-3.89026">
        <ele>8</ele>
        <time>2019-03-19T17:41:19Z</time>
      </trkpt>
      <trkpt lat="47.84442" lon="-3.89044">
        <ele>7</ele>
        <time>2019-03-19T17:42:19Z</time>
      </trkpt>
      <trkpt lat="47.84456" lon="-3.89062">
        <ele>7</ele>
        <time>2019-03-19T17:43:19Z</time>
      </trkpt>
      <trkpt lat="47.84446" lon="-3.89082">
        <ele>6</ele>
        <time>2019-03-19T17:44:19Z</time>
      </trkpt>
      <trkpt lat="47.84443" lon="-3.89094">
        <ele>6</ele>
        <time>2019-03-19T17:45:19Z</time>
      </trkpt>
      <trkpt lat="47.84432" lon="-3.89102">
        <ele>6</ele>
        <time>2019-03-19T17:46:19Z</time>
      </trkpt>
      <trkpt lat="47.84425" lon="-3.89121">
        <ele>6</ele>
        <time>2019-03-19T17:47:19Z</time>
      </trkpt>
      <trkpt lat="47.84422" lon="-3.89135">
        <ele>6</ele>
        <time>2019-03-19T17:48:19Z</time>
      </trkpt>
      <trkpt lat="47.84445" lon="-3.8917">
        <ele>4</ele>
        <time>2019-03-19T17:49:19Z</time>
      </trkpt>
      <trkpt lat="47.84444" lon="-3.8918">
        <ele>4</ele>
        <time>2019-03-19T17:50:19Z</time>
      </trkpt>
      <trkpt lat="47.84436" lon="-3.89185">
        <ele>4</ele>
        <time>2019-03-19T17:51:19Z</time>
      </trkpt>
      <trkpt lat="47.84431" lon="-3.892">
        <ele>3</ele>
        <time>2019-03-19T17:52:19Z</time>
      </trkpt>
      <trkpt lat="47.84423" lon="-3.89205">
        <ele>3</ele>
        <time>2019-03-19T17:53:19Z</time>
      </trkpt>
      <trkpt lat="47.84402" lon="-3.89192">
        <ele>4</ele>
        <time>2019-03-19T17:54:19Z</time>
      </trkpt>
      <trkpt lat="47.84394" lon="-3.89181">
        <ele>5</ele>
        <time>2019-03-19T17:55:19Z</time>
      </trkpt>
      <trkpt lat="47.84379" lon="-3.89139">
        <ele>7</ele>
        <time>2019-03-19T17:56:19Z</time>
      </trkpt>
      <trkpt lat="47.84368" lon="-3.89122">
        <ele>7</ele>
        <time>2019-03-19T17:57:19Z</time>
      </trkpt>
      <trkpt lat="47.84342" lon="-3.8911">
        <ele>8</ele>
        <time>2019-03-19T17:58:19Z</time>
      </trkpt>
      <trkpt lat="47.84331" lon="-3.89117">
        <ele>8</ele>
        <time>2019-03-19T17:59:19Z</time>
      </trkpt>
      <trkpt lat="47.84333" lon="-3.89129">
        <ele>8</ele>
        <time>2019-03-19T18:00:19Z</time>
      </trkpt>
      <trkpt lat="47.84334" lon="-3.89143">
        <ele>8</ele>
        <time>2019-03-19T18:01:19Z</time>
      </trkpt>
      <trkpt lat="47.84329" lon="-3.89159">
        <ele>7</ele>
        <time>2019-03-19T18:02:19Z</time>
      </trkpt>
      <trkpt lat="47.84322" lon="-3.89179">
        <ele>7</ele>
        <time>2019-03-19T18:03:19Z</time>
      </trkpt>
      <trkpt lat="47.84282" lon="-3.89263">
        <ele>5</ele>
        <time>2019-03-19T18:04:19Z</time>
      </trkpt>
      <trkpt lat="47.84287" lon="-3.89294">
        <ele>4</ele>
        <time>2019-03-19T18:05:19Z</time>
      </trkpt>
      <trkpt lat="47.84282" lon="-3.89327">
        <ele>4</ele>
        <time>2019-03-19T18:06:19Z</time>
      </trkpt>
      <trkpt lat="47.84259" lon="-3.89363">
        <ele>5</ele>
        <time>2019-03-19T18:07:19Z</time>
      </trkpt>
      <trkpt lat="47.84247" lon="-3.89378">
        <ele>5</ele>
        <time>2019-03-19T18:08:19Z</time>
      </trkpt>
      <trkpt lat="47.84226" lon="-3.89386">
        <ele>6</ele>
        <time>2019-03-19T18:09:19Z</time>
      </trkpt>
      <trkpt lat="47.84219" lon="-3.89391">
        <ele>6</ele>
        <time>2019-03-19T18:10:19Z</time>
      </trkpt>
      <trkpt lat="47.84229" lon="-3.89418">
        <ele>6</ele>
        <time>2019-03-19T18:11:19Z</time>
      </trkpt>
      <trkpt lat="47.84235" lon="-3.89422">
        <ele>6</ele>
        <time>2019-03-19T18:12:19Z</time>
      </trkpt>
      <trkpt lat="47.84281" lon="-3.89413">
        <ele>5</ele>
        <time>2019-03-19T18:13:19Z</time>
      </trkpt>
      <trkpt lat="47.84285" lon="-3.89416">
        <ele>5</ele>
        <time>2019-03-19T18:14:19Z</time>
      </trkpt>
      <trkpt lat="47.84342" lon="-3.89409">
        <ele>5</ele>
        <time>2019-03-19T18:15:19Z</time>
      </trkpt>
      <trkpt lat="47.84352" lon="-3.89413">
        <ele>5</ele>
        <time>2019-03-19T18:16:19Z</time>
      </trkpt>
      <trkpt lat="47.84395" lon="-3.89451">
        <ele>6</ele>
        <time>2019-03-19T18:17:19Z</time>
      </trkpt>
      <trkpt lat="47.84399" lon="-3.89446">
        <ele>6</ele>
        <time>2019-03-19T18:18:19Z</time>
      </trkpt>
      <trkpt lat="47.844" lon="-3.89396">
        <ele>5</ele>
        <time>2019-03-19T18:19:19Z</time>
      </trkpt>
      <trkpt lat="47.84402" lon="-3.89389">
        <ele>5</ele>
        <time>2019-03-19T18:20:19Z</time>
      </trkpt>
      <trkpt lat="47.84421" lon="-3.89382">
        <ele>5</ele>
        <time>2019-03-19T18:21:19Z</time>
      </trkpt>
      <trkpt lat="47.84444" lon="-3.89367">
        <ele>5</ele>
        <time>2019-03-19T18:22:19Z</time>
      </trkpt>
      <trkpt lat="47.84488" lon="-3.8933">
        <ele>3</ele>
        <time>2019-03-19T18:23:19Z</time>
      </trkpt>
      <trkpt lat="47.84502" lon="-3.89323">
        <ele>3</ele>
        <time>2019-03-19T18:24:19Z</time>
      </trkpt>
      <trkpt lat="47.84517" lon="-3.89325">
        <ele>3</ele>
        <time>2019-03-19T18:25:19Z</time>
      </trkpt>
      <trkpt lat="47.84532" lon="-3.89331">
        <ele>3</ele>
        <time>2019-03-19T18:26:19Z</time>
      </trkpt>
      <trkpt lat="47.84588" lon="-3.89299">
        <ele>2</ele>
        <time>2019-03-19T18:27:19Z</time>
      </trkpt>
      <trkpt lat="47.84606" lon="-3.89293">
        <ele>2</ele>
        <time>2019-03-19T18:28:19Z</time>
      </trkpt>
      <trkpt lat="47.84628" lon="-3.89293">
        <ele>2</ele>
        <time>2019-03-19T18:29:19Z</time>
      </trkpt>
      <trkpt lat="47.84642" lon="-3.89296">
        <ele>2</ele>
        <time>2019-03-19T18:30:19Z</time>
      </trkpt>
      <trkpt lat="47.84659" lon="-3.8932">
        <ele>3</ele>
        <time>2019-03-19T18:31:19Z</time>
      </trkpt>
      <trkpt lat="47.84664" lon="-3.89335">
        <ele>3</ele>
        <time>2019-03-19T18:32:19Z</time>
      </trkpt>
      <trkpt lat="47.84669" lon="-3.89354">
        <ele>3</ele>
        <time>2019-03-19T18:33:19Z</time>
      </trkpt>
      <trkpt lat="47.84668" lon="-3.89375">
        <ele>4</ele>
        <time>2019-03-19T18:34:19Z</time>
      </trkpt>
      <trkpt lat="47.84673" lon="-3.89396">
        <ele>4</ele>
        <time>2019-03-19T18:35:19Z</time>
      </trkpt>
      <trkpt lat="47.84682" lon="-3.89411">
        <ele>4</ele>
        <time>2019-03-19T18:36:19Z</time>
      </trkpt>
      <trkpt lat="47.84701" lon="-3.89429">
        <ele>4</ele>
        <time>2019-03-19T18:37:19Z</time>
      </trkpt>
      <trkpt lat="47.84719" lon="-3.89466">
        <ele>3</ele>
        <time>2019-03-19T18:38:19Z</time>
      </trkpt>
      <trkpt lat="47.84717" lon="-3.89497">
        <ele>4</ele>
        <time>2019-03-19T18:39:19Z</time>
      </trkpt>
      <trkpt lat="47.84705" lon="-3.89532">
        <ele>4</ele>
        <time>2019-03-19T18:40:19Z</time>
      </trkpt>
      <trkpt lat="47.84686" lon="-3.89562">
        <ele>5</ele>
        <time>2019-03-19T18:41:19Z</time>
      </trkpt>
      <trkpt lat="47.84691" lon="-3.89583">
        <ele>4</ele>
        <time>2019-03-19T18:42:19Z</time>
      </trkpt>
      <trkpt lat="47.84691" lon="-3.89605">
        <ele>4</ele>
        <time>2019-03-19T18:43:19Z</time>
      </trkpt>
      <trkpt lat="47.84679" lon="-3.8962">
        <ele>4</ele>
        <time>2019-03-19T18:44:19Z</time>
      </trkpt>
      <trkpt lat="47.84677" lon="-3.89639">
        <ele>4</ele>
        <time>2019-03-19T18:45:19Z</time>
      </trkpt>
      <trkpt lat="47.84691" lon="-3.89681">
        <ele>3</ele>
        <time>2019-03-19T18:46:19Z</time>
      </trkpt>
      <trkpt lat="47.84684" lon="-3.89728">
        <ele>5</ele>
        <time>2019-03-19T18:47:19Z</time>
      </trkpt>
      <trkpt lat="47.8467" lon="-3.89765">
        <ele>7</ele>
        <time>2019-03-19T18:48:19Z</time>
      </trkpt>
      <trkpt lat="47.84668" lon="-3.89797">
        <ele>6</ele>
        <time>2019-03-19T18:49:19Z</time>
      </trkpt>
      <trkpt lat="47.8467" lon="-3.89803">
        <ele>6</ele>
        <time>2019-03-19T18:50:19Z</time>
      </trkpt>
      <trkpt lat="47.84681" lon="-3.89809">
        <ele>5</ele>
        <time>2019-03-19T18:51:19Z</time>
      </trkpt>
      <trkpt lat="47.84683" lon="-3.89815">
        <ele>5</ele>
        <time>2019-03-19T18:52:19Z</time>
      </trkpt>
      <trkpt lat="47.84678" lon="-3.89827">
        <ele>5</ele>
        <time>2019-03-19T18:53:19Z</time>
      </trkpt>
      <trkpt lat="47.84672" lon="-3.89831">
        <ele>6</ele>
        <time>2019-03-19T18:54:19Z</time>
      </trkpt>
      <trkpt lat="47.84668" lon="-3.89857">
        <ele>5</ele>
        <time>2019-03-19T18:55:19Z</time>
      </trkpt>
      <trkpt lat="47.84647" lon="-3.89874">
        <ele>5</ele>
        <time>2019-03-19T18:56:19Z</time>
      </trkpt>
      <trkpt lat="47.84619" lon="-3.89888">
        <ele>5</ele>
        <time>2019-03-19T18:57:19Z</time>
      </trkpt>
      <trkpt lat="47.846" lon="-3.89891">
        <ele>5</ele>
        <time>2019-03-19T18:58:19Z</time>
      </trkpt>
      <trkpt lat="47.84594" lon="-3.89902">
        <ele>4</ele>
        <time>2019-03-19T18:59:19Z</time>
      </trkpt>
      <trkpt lat="47.84591" lon="-3.89903">
        <ele>4</ele>
        <time>2019-03-19T19:00:19Z</time>
      </trkpt>
      <trkpt lat="47.84585" lon="-3.89899">
        <ele>4</ele>
        <time>2019-03-19T19:01:19Z</time>
      </trkpt>
      <trkpt lat="47.84561" lon="-3.89891">
        <ele>5</ele>
        <time>2019-03-19T19:02:19Z</time>
      </trkpt>
      <trkpt lat="47.8455" lon="-3.89884">
        <ele>5</ele>
        <time>2019-03-19T19:03:19Z</time>
      </trkpt>
      <trkpt lat="47.84488" lon="-3.89879">
        <ele>4</ele>
        <time>2019-03-19T19:04:19Z</time>
      </trkpt>
      <trkpt lat="47.84474" lon="-3.89871">
        <ele>4</ele>
        <time>2019-03-19T19:05:19Z</time>
      </trkpt>
      <trkpt lat="47.84468" lon="-3.89869">
        <ele>4</ele>
        <time>2019-03-19T19:06:19Z</time>
      </trkpt>
      <trkpt lat="47.84446" lon="-3.89877">
        <ele>3</ele>
        <time>2019-03-19T19:07:19Z</time>
      </trkpt>
      <trkpt lat="47.84441" lon="-3.89875">
        <ele>3</ele>
        <time>2019-03-19T19:08:19Z</time>
      </trkpt>
      <trkpt lat="47.84426" lon="-3.89855">
        <ele>3</ele>
        <time>2019-03-19T19:09:19Z</time>
      </trkpt>
      <trkpt lat="47.84424" lon="-3.89844">
        <ele>4</ele>
        <time>2019-03-19T19:10:19Z</time>
      </trkpt>
      <trkpt lat="47.84423" lon="-3.89831">
        <ele>4</ele>
        <time>2019-03-19T19:11:19Z</time>
      </trkpt>
      <trkpt lat="47.84421" lon="-3.89823">
        <ele>5</ele>
        <time>2019-03-19T19:12:19Z</time>
      </trkpt>
      <trkpt lat="47.84411" lon="-3.89821">
        <ele>5</ele>
        <time>2019-03-19T19:13:19Z</time>
      </trkpt>
      <trkpt lat="47.8439" lon="-3.898">
        <ele>5</ele>
        <time>2019-03-19T19:14:19Z</time>
      </trkpt>
      <trkpt lat="47.84372" lon="-3.89809">
        <ele>5</ele>
        <time>2019-03-19T19:15:19Z</time>
      </trkpt>
      <trkpt lat="47.84338" lon="-3.89807">
        <ele>5</ele>
        <time>2019-03-19T19:16:19Z</time>
      </trkpt>
      <trkpt lat="47.84338" lon="-3.89783">
        <ele>6</ele>
        <time>2019-03-19T19:17:19Z</time>
      </trkpt>
      <trkpt lat="47.84333" lon="-3.89772">
        <ele>7</ele>
        <time>2019-03-19T19:18:19Z</time>
      </trkpt>
      <trkpt lat="47.84321" lon="-3.89772">
        <ele>7</ele>
        <time>2019-03-19T19:19:19Z</time>
      </trkpt>
      <trkpt lat="47.84304" lon="-3.89766">
        <ele>7</ele>
        <time>2019-03-19T19:20:19Z</time>
      </trkpt>
      <trkpt lat="47.8427" lon="-3.89751">
        <ele>8</ele>
        <time>2019-03-19T19:21:19Z</time>
      </trkpt>
      <trkpt lat="47.84244" lon="-3.89748">
        <ele>8</ele>
        <time>2019-03-19T19:22:19Z</time>
      </trkpt>
      <trkpt lat="47.84235" lon="-3.89742">
        <ele>8</ele>
        <time>2019-03-19T19:23:19Z</time>
      </trkpt>
      <trkpt lat="47.84232" lon="-3.89729">
        <ele>8</ele>
        <time>2019-03-19T19:24:19Z</time>
      </trkpt>
      <trkpt lat="47.84239" lon="-3.89694">
        <ele>9</ele>
        <time>2019-03-19T19:25:19Z</time>
      </trkpt>
      <trkpt lat="47.84209" lon="-3.89722">
        <ele>9</ele>
        <time>2019-03-19T19:26:19Z</time>
      </trkpt>
      <trkpt lat="47.84202" lon="-3.89721">
        <ele>9</ele>
        <time>2019-03-19T19:27:19Z</time>
      </trkpt>
      <trkpt lat="47.84184" lon="-3.89709">
        <ele>9</ele>
        <time>2019-03-19T19:28:19Z</time>
      </trkpt>
      <trkpt lat="47.84178" lon="-3.89724">
        <ele>9</ele>
        <time>2019-03-19T19:29:19Z</time>
      </trkpt>
      <trkpt lat="47.84167" lon="-3.89744">
        <ele>8</ele>
        <time>2019-03-19T19:30:19Z</time>
      </trkpt>
      <trkpt lat="47.84141" lon="-3.89758">
        <ele>7</ele>
        <time>2019-03-19T19:31:19Z</time>
      </trkpt>
      <trkpt lat="47.84118" lon="-3.89747">
        <ele>7</ele>
        <time>2019-03-19T19:32:19Z</time>
      </trkpt>
      <trkpt lat="47.84094" lon="-3.8974">
        <ele>7</ele>
        <time>2019-03-19T19:33:19Z</time>
      </trkpt>
      <trkpt lat="47.84083" lon="-3.89747">
        <ele>7</ele>
        <time>2019-03-19T19:34:19Z</time>
      </trkpt>
      <trkpt lat="47.84067" lon="-3.89752">
        <ele>7</ele>
        <time>2019-03-19T19:35:19Z</time>
      </trkpt>
      <trkpt lat="47.84069" lon="-3.89775">
        <ele>7</ele>
        <time>2019-03-19T19:36:19Z</time>
      </trkpt>
      <trkpt lat="47.84067" lon="-3.89837">
        <ele>5</ele>
        <time>2019-03-19T19:37:19Z</time>
      </trkpt>
      <trkpt lat="47.84063" lon="-3.89861">
        <ele>5</ele>
        <time>2019-03-19T19:38:19Z</time>
      </trkpt>
      <trkpt lat="47.84063" lon="-3.89881">
        <ele>4</ele>
        <time>2019-03-19T19:39:19Z</time>
      </trkpt>
      <trkpt lat="47.84045" lon="-3.89956">
        <ele>4</ele>
        <time>2019-03-19T19:40:19Z</time>
      </trkpt>
      <trkpt lat="47.84018" lon="-3.90017">
        <ele>5</ele>
        <time>2019-03-19T19:41:19Z</time>
      </trkpt>
      <trkpt lat="47.8401" lon="-3.90085">
        <ele>4</ele>
        <time>2019-03-19T19:42:19Z</time>
      </trkpt>
      <trkpt lat="47.8401" lon="-3.90111">
        <ele>4</ele>
        <time>2019-03-19T19:43:19Z</time>
      </trkpt>
      <trkpt lat="47.84013" lon="-3.90131">
        <ele>3</ele>
        <time>2019-03-19T19:44:19Z</time>
      </trkpt>
      <trkpt lat="47.84011" lon="-3.9016">
        <ele>3</ele>
        <time>2019-03-19T19:45:19Z</time>
      </trkpt>
      <trkpt lat="47.84013" lon="-3.90166">
        <ele>3</ele>
        <time>2019-03-19T19:46:19Z</time>
      </trkpt>
      <trkpt lat="47.84018" lon="-3.90167">
        <ele>3</ele>
        <time>2019-03-19T19:47:19Z</time>
      </trkpt>
      <trkpt lat="47.84027" lon="-3.90162">
        <ele>2</ele>
        <time>2019-03-19T19:48:19Z</time>
      </trkpt>
      <trkpt lat="47.84018" lon="-3.90167">
        <ele>3</ele>
        <time>2019-03-19T19:49:19Z</time>
      </trkpt>
      <trkpt lat="47.84013" lon="-3.90166">
        <ele>3</ele>
        <time>2019-03-19T19:50:19Z</time>
      </trkpt>
      <trkpt lat="47.84011" lon="-3.9016">
        <ele>3</ele>
        <time>2019-03-19T19:51:19Z</time>
      </trkpt>
      <trkpt lat="47.84007" lon="-3.90163">
        <ele>3</ele>
        <time>2019-03-19T19:52:19Z</time>
      </trkpt>
      <trkpt lat="47.84001" lon="-3.90158">
        <ele>3</ele>
        <time>2019-03-19T19:53:19Z</time>
      </trkpt>
      <trkpt lat="47.83993" lon="-3.90146">
        <ele>4</ele>
        <time>2019-03-19T19:54:19Z</time>
      </trkpt>
      <trkpt lat="47.83974" lon="-3.90137">
        <ele>4</ele>
        <time>2019-03-19T19:55:19Z</time>
      </trkpt>
      <trkpt lat="47.83941" lon="-3.90131">
        <ele>4</ele>
        <time>2019-03-19T19:56:19Z</time>
      </trkpt>
      <trkpt lat="47.83937" lon="-3.90136">
        <ele>4</ele>
        <time>2019-03-19T19:57:19Z</time>
      </trkpt>
      <trkpt lat="47.83902" lon="-3.90128">
        <ele>4</ele>
        <time>2019-03-19T19:58:19Z</time>
      </trkpt>
      <trkpt lat="47.83867" lon="-3.90105">
        <ele>4</ele>
        <time>2019-03-19T19:59:19Z</time>
      </trkpt>
      <trkpt lat="47.83813" lon="-3.90079">
        <ele>5</ele>
        <time>2019-03-19T20:00:19Z</time>
      </trkpt>
      <trkpt lat="47.83782" lon="-3.90066">
        <ele>4</ele>
        <time>2019-03-19T20:01:19Z</time>
      </trkpt>
      <trkpt lat="47.83752" lon="-3.90063">
        <ele>3</ele>
        <time>2019-03-19T20:02:19Z</time>
      </trkpt>
      <trkpt lat="47.83739" lon="-3.90064">
        <ele>3</ele>
        <time>2019-03-19T20:03:19Z</time>
      </trkpt>
      <trkpt lat="47.83724" lon="-3.90068">
        <ele>3</ele>
        <time>2019-03-19T20:04:19Z</time>
      </trkpt>
      <trkpt lat="47.83676" lon="-3.90092">
        <ele>3</ele>
        <time>2019-03-19T20:05:19Z</time>
      </trkpt>
      <trkpt lat="47.83672" lon="-3.90096">
        <ele>3</ele>
        <time>2019-03-19T20:06:19Z</time>
      </trkpt>
      <trkpt lat="47.83669" lon="-3.90104">
        <ele>3</ele>
        <time>2019-03-19T20:07:19Z</time>
      </trkpt>
      <trkpt lat="47.83665" lon="-3.90123">
        <ele>2</ele>
        <time>2019-03-19T20:08:19Z</time>
      </trkpt>
      <trkpt lat="47.83652" lon="-3.90135">
        <ele>2</ele>
        <time>2019-03-19T20:09:19Z</time>
      </trkpt>
      <trkpt lat="47.83641" lon="-3.90134">
        <ele>2</ele>
        <time>2019-03-19T20:10:19Z</time>
      </trkpt>
      <trkpt lat="47.83637" lon="-3.9016">
        <ele>1</ele>
        <time>2019-03-19T20:11:19Z</time>
      </trkpt>
      <trkpt lat="47.83624" lon="-3.90179">
        <ele>1</ele>
        <time>2019-03-19T20:12:19Z</time>
      </trkpt>
      <trkpt lat="47.83614" lon="-3.90204">
        <ele>1</ele>
        <time>2019-03-19T20:13:19Z</time>
      </trkpt>
      <trkpt lat="47.83607" lon="-3.90214">
        <ele>1</ele>
        <time>2019-03-19T20:14:19Z</time>
      </trkpt>
      <trkpt lat="47.83585" lon="-3.90225">
        <ele>2</ele>
        <time>2019-03-19T20:15:19Z</time>
      </trkpt>
      <trkpt lat="47.83581" lon="-3.90232">
        <ele>1</ele>
        <time>2019-03-19T20:16:19Z</time>
      </trkpt>
      <trkpt lat="47.83577" lon="-3.90237">
        <ele>1</ele>
        <time>2019-03-19T20:17:19Z</time>
      </trkpt>
      <trkpt lat="47.83571" lon="-3.90235">
        <ele>1</ele>
        <time>2019-03-19T20:18:19Z</time>
      </trkpt>
      <trkpt lat="47.83565" lon="-3.90216">
        <ele>2</ele>
        <time>2019-03-19T20:19:19Z</time>
      </trkpt>
      <trkpt lat="47.83554" lon="-3.90204">
        <ele>2</ele>
        <time>2019-03-19T20:20:19Z</time>
      </trkpt>
      <trkpt lat="47.83539" lon="-3.90196">
        <ele>3</ele>
        <time>2019-03-19T20:21:19Z</time>
      </trkpt>
      <trkpt lat="47.83516" lon="-3.90196">
        <ele>3</ele>
        <time>2019-03-19T20:22:19Z</time>
      </trkpt>
      <trkpt lat="47.83477" lon="-3.90148">
        <ele>4</ele>
        <time>2019-03-19T20:23:19Z</time>
      </trkpt>
      <trkpt lat="47.83459" lon="-3.9015">
        <ele>3</ele>
        <time>2019-03-19T20:24:19Z</time>
      </trkpt>
      <trkpt lat="47.83449" lon="-3.90154">
        <ele>2</ele>
        <time>2019-03-19T20:25:19Z</time>
      </trkpt>
      <trkpt lat="47.83443" lon="-3.90163">
        <ele>2</ele>
        <time>2019-03-19T20:26:19Z</time>
      </trkpt>
      <trkpt lat="47.83441" lon="-3.90161">
        <ele>2</ele>
        <time>2019-03-19T20:27:19Z</time>
      </trkpt>
      <trkpt lat="47.83445" lon="-3.90112">
        <ele>3</ele>
        <time>2019-03-19T20:28:19Z</time>
      </trkpt>
      <trkpt lat="47.83444" lon="-3.9007">
        <ele>3</ele>
        <time>2019-03-19T20:29:19Z</time>
      </trkpt>
      <trkpt lat="47.83439" lon="-3.90055">
        <ele>3</ele>
        <time>2019-03-19T20:30:19Z</time>
      </trkpt>
      <trkpt lat="47.83425" lon="-3.90044">
        <ele>2</ele>
        <time>2019-03-19T20:31:19Z</time>
      </trkpt>
      <trkpt lat="47.83424" lon="-3.9004">
        <ele>2</ele>
        <time>2019-03-19T20:32:19Z</time>
      </trkpt>
      <trkpt lat="47.83424" lon="-3.90028">
        <ele>2</ele>
        <time>2019-03-19T20:33:19Z</time>
      </trkpt>
      <trkpt lat="47.83432" lon="-3.89983">
        <ele>3</ele>
        <time>2019-03-19T20:34:19Z</time>
      </trkpt>
      <trkpt lat="47.83433" lon="-3.89967">
        <ele>3</ele>
        <time>2019-03-19T20:35:19Z</time>
      </trkpt>
      <trkpt lat="47.8343" lon="-3.89947">
        <ele>4</ele>
        <time>2019-03-19T20:36:19Z</time>
      </trkpt>
      <trkpt lat="47.83413" lon="-3.89884">
        <ele>5</ele>
        <time>2019-03-19T20:37:19Z</time>
      </trkpt>
      <trkpt lat="47.83387" lon="-3.89813">
        <ele>5</ele>
        <time>2019-03-19T20:38:19Z</time>
      </trkpt>
      <trkpt lat="47.83379" lon="-3.89788">
        <ele>5</ele>
        <time>2019-03-19T20:39:19Z</time>
      </trkpt>
      <trkpt lat="47.83378" lon="-3.89714">
        <ele>4</ele>
        <time>2019-03-19T20:40:19Z</time>
      </trkpt>
      <trkpt lat="47.83383" lon="-3.89664">
        <ele>4</ele>
        <time>2019-03-19T20:41:19Z</time>
      </trkpt>
      <trkpt lat="47.8339" lon="-3.89644">
        <ele>4</ele>
        <time>2019-03-19T20:42:19Z</time>
      </trkpt>
      <trkpt lat="47.83391" lon="-3.89619">
        <ele>4</ele>
        <time>2019-03-19T20:43:19Z</time>
      </trkpt>
      <trkpt lat="47.83396" lon="-3.89599">
        <ele>4</ele>
        <time>2019-03-19T20:44:19Z</time>
      </trkpt>
      <trkpt lat="47.83397" lon="-3.89559">
        <ele>4</ele>
        <time>2019-03-19T20:45:19Z</time>
      </trkpt>
      <trkpt lat="47.83373" lon="-3.89488">
        <ele>3</ele>
        <time>2019-03-19T20:46:19Z</time>
      </trkpt>
      <trkpt lat="47.8336" lon="-3.89431">
        <ele>3</ele>
        <time>2019-03-19T20:47:19Z</time>
      </trkpt>
      <trkpt lat="47.83356" lon="-3.89368">
        <ele>4</ele>
        <time>2019-03-19T20:48:19Z</time>
      </trkpt>
      <trkpt lat="47.83345" lon="-3.8931">
        <ele>4</ele>
        <time>2019-03-19T20:49:19Z</time>
      </trkpt>
      <trkpt lat="47.83319" lon="-3.89303">
        <ele>4</ele>
        <time>2019-03-19T20:50:19Z</time>
      </trkpt>
      <trkpt lat="47.83306" lon="-3.89293">
        <ele>4</ele>
        <time>2019-03-19T20:51:19Z</time>
      </trkpt>
      <trkpt lat="47.8327" lon="-3.89245">
        <ele>4</ele>
        <time>2019-03-19T20:52:19Z</time>
      </trkpt>
      <trkpt lat="47.83253" lon="-3.89214">
        <ele>5</ele>
        <time>2019-03-19T20:53:19Z</time>
      </trkpt>
      <trkpt lat="47.83229" lon="-3.89179">
        <ele>6</ele>
        <time>2019-03-19T20:54:19Z</time>
      </trkpt>
      <trkpt lat="47.83206" lon="-3.89156">
        <ele>5</ele>
        <time>2019-03-19T20:55:19Z</time>
      </trkpt>
      <trkpt lat="47.83172" lon="-3.89133">
        <ele>4</ele>
        <time>2019-03-19T20:56:19Z</time>
      </trkpt>
      <trkpt lat="47.83159" lon="-3.89117">
        <ele>4</ele>
        <time>2019-03-19T20:57:19Z</time>
      </trkpt>
      <trkpt lat="47.83153" lon="-3.89106">
        <ele>4</ele>
        <time>2019-03-19T20:58:19Z</time>
      </trkpt>
      <trkpt lat="47.83132" lon="-3.89107">
        <ele>4</ele>
        <time>2019-03-19T20:59:19Z</time>
      </trkpt>
      <trkpt lat="47.83133" lon="-3.89099">
        <ele>4</ele>
        <time>2019-03-19T21:00:19Z</time>
      </trkpt>
      <trkpt lat="47.83136" lon="-3.89099">
        <ele>4</ele>
        <time>2019-03-19T21:01:19Z</time>
      </trkpt>
      <trkpt lat="47.83096" lon="-3.89097">
        <ele>4</ele>
        <time>2019-03-19T21:02:19Z</time>
      </trkpt>
      <trkpt lat="47.83085" lon="-3.89087">
        <ele>4</ele>
        <time>2019-03-19T21:03:19Z</time>
      </trkpt>
      <trkpt lat="47.83071" lon="-3.89067">
        <ele>4</ele>
        <time>2019-03-19T21:04:19Z</time>
      </trkpt>
      <trkpt lat="47.8306" lon="-3.89049">
        <ele>4</ele>
        <time>2019-03-19T21:05:19Z</time>
      </trkpt>
      <trkpt lat="47.8303" lon="-3.88979">
        <ele>5</ele>
        <time>2019-03-19T21:06:19Z</time>
      </trkpt>
      <trkpt lat="47.82959" lon="-3.88822">
        <ele>5</ele>
        <time>2019-03-19T21:07:19Z</time>
      </trkpt>
      <trkpt lat="47.8294" lon="-3.88784">
        <ele>5</ele>
        <time>2019-03-19T21:08:19Z</time>
      </trkpt>
      <trkpt lat="47.8291" lon="-3.88756">
        <ele>5</ele>
        <time>2019-03-19T21:09:19Z</time>
      </trkpt>
      <trkpt lat="47.82893" lon="-3.88732">
        <ele>4</ele>
        <time>2019-03-19T21:10:19Z</time>
      </trkpt>
      <trkpt lat="47.8286" lon="-3.88663">
        <ele>5</ele>
        <time>2019-03-19T21:11:19Z</time>
      </trkpt>
      <trkpt lat="47.828" lon="-3.88554">
        <ele>5</ele>
        <time>2019-03-19T21:12:19Z</time>
      </trkpt>
      <trkpt lat="47.8278" lon="-3.88533">
        <ele>5</ele>
        <time>2019-03-19T21:13:19Z</time>
      </trkpt>
      <trkpt lat="47.82731" lon="-3.88477">
        <ele>4</ele>
        <time>2019-03-19T21:14:19Z</time>
      </trkpt>
      <trkpt lat="47.82713" lon="-3.88468">
        <ele>4</ele>
        <time>2019-03-19T21:15:19Z</time>
      </trkpt>
      <trkpt lat="47.8268" lon="-3.88448">
        <ele>4</ele>
        <time>2019-03-19T21:16:19Z</time>
      </trkpt>
      <trkpt lat="47.82667" lon="-3.8847">
        <ele>3</ele>
        <time>2019-03-19T21:17:19Z</time>
      </trkpt>
      <trkpt lat="47.82618" lon="-3.88452">
        <ele>4</ele>
        <time>2019-03-19T21:18:19Z</time>
      </trkpt>
      <trkpt lat="47.82547" lon="-3.88414">
        <ele>7</ele>
        <time>2019-03-19T21:19:19Z</time>
      </trkpt>
      <trkpt lat="47.82529" lon="-3.88388">
        <ele>6</ele>
        <time>2019-03-19T21:20:19Z</time>
      </trkpt>
      <trkpt lat="47.82516" lon="-3.88365">
        <ele>6</ele>
        <time>2019-03-19T21:21:19Z</time>
      </trkpt>
      <trkpt lat="47.82402" lon="-3.88358">
        <ele>4</ele>
        <time>2019-03-19T21:22:19Z</time>
      </trkpt>
      <trkpt lat="47.8238" lon="-3.88348">
        <ele>3</ele>
        <time>2019-03-19T21:23:19Z</time>
      </trkpt>
      <trkpt lat="47.82337" lon="-3.88259">
        <ele>2</ele>
        <time>2019-03-19T21:24:19Z</time>
      </trkpt>
      <trkpt lat="47.82339" lon="-3.88243">
        <ele>2</ele>
        <time>2019-03-19T21:25:19Z</time>
      </trkpt>
      <trkpt lat="47.8233" lon="-3.88204">
        <ele>2</ele>
        <time>2019-03-19T21:26:19Z</time>
      </trkpt>
      <trkpt lat="47.82323" lon="-3.88113">
        <ele>3</ele>
        <time>2019-03-19T21:27:19Z</time>
      </trkpt>
      <trkpt lat="47.8231" lon="-3.88072">
        <ele>4</ele>
        <time>2019-03-19T21:28:19Z</time>
      </trkpt>
      <trkpt lat="47.82279" lon="-3.88013">
        <ele>5</ele>
        <time>2019-03-19T21:29:19Z</time>
      </trkpt>
      <trkpt lat="47.82257" lon="-3.87975">
        <ele>5</ele>
        <time>2019-03-19T21:30:19Z</time>
      </trkpt>
      <trkpt lat="47.82215" lon="-3.87913">
        <ele>4</ele>
        <time>2019-03-19T21:31:19Z</time>
      </trkpt>
      <trkpt lat="47.82194" lon="-3.8791">
        <ele>3</ele>
        <time>2019-03-19T21:32:19Z</time>
      </trkpt>
      <trkpt lat="47.82179" lon="-3.87856">
        <ele>3</ele>
        <time>2019-03-19T21:33:19Z</time>
      </trkpt>
      <trkpt lat="47.82064" lon="-3.87779">
        <ele>1</ele>
        <time>2019-03-19T21:34:19Z</time>
      </trkpt>
      <trkpt lat="47.82004" lon="-3.87725">
        <ele>1</ele>
        <time>2019-03-19T21:35:19Z</time>
      </trkpt>
      <trkpt lat="47.81845" lon="-3.87523">
        <ele>3</ele>
        <time>2019-03-19T21:36:19Z</time>
      </trkpt>
      <trkpt lat="47.8176" lon="-3.87421">
        <ele>2</ele>
        <time>2019-03-19T21:37:19Z</time>
      </trkpt>
      <trkpt lat="47.81685" lon="-3.87291">
        <ele>2</ele>
        <time>2019-03-19T21:38:19Z</time>
      </trkpt>
      <trkpt lat="47.81625" lon="-3.87212">
        <ele>3</ele>
        <time>2019-03-19T21:39:19Z</time>
      </trkpt>
      <trkpt lat="47.81579" lon="-3.87158">
        <ele>4</ele>
        <time>2019-03-19T21:40:19Z</time>
      </trkpt>
      <trkpt lat="47.81548" lon="-3.871">
        <ele>3</ele>
        <time>2019-03-19T21:41:19Z</time>
      </trkpt>
      <trkpt lat="47.81551" lon="-3.87094">
        <ele>3</ele>
        <time>2019-03-19T21:42:19Z</time>
      </trkpt>
      <trkpt lat="47.81548" lon="-3.871">
        <ele>3</ele>
        <time>2019-03-19T21:43:19Z</time>
      </trkpt>
      <trkpt lat="47.81534" lon="-3.87083">
        <ele>4</ele>
        <time>2019-03-19T21:44:19Z</time>
      </trkpt>
      <trkpt lat="47.81513" lon="-3.87069">
        <ele>4</ele>
        <time>2019-03-19T21:45:19Z</time>
      </trkpt>
      <trkpt lat="47.81511" lon="-3.87063">
        <ele>4</ele>
        <time>2019-03-19T21:46:19Z</time>
      </trkpt>
      <trkpt lat="47.81482" lon="-3.87042">
        <ele>4</ele>
        <time>2019-03-19T21:47:19Z</time>
      </trkpt>
      <trkpt lat="47.81477" lon="-3.87037">
        <ele>4</ele>
        <time>2019-03-19T21:48:19Z</time>
      </trkpt>
      <trkpt lat="47.81472" lon="-3.87028">
        <ele>4</ele>
        <time>2019-03-19T21:49:19Z</time>
      </trkpt>
      <trkpt lat="47.81447" lon="-3.86999">
        <ele>4</ele>
        <time>2019-03-19T21:50:19Z</time>
      </trkpt>
      <trkpt lat="47.81425" lon="-3.8698">
        <ele>3</ele>
        <time>2019-03-19T21:51:19Z</time>
      </trkpt>
      <trkpt lat="47.81416" lon="-3.8697">
        <ele>3</ele>
        <time>2019-03-19T21:52:19Z</time>
      </trkpt>
      <trkpt lat="47.81406" lon="-3.86967">
        <ele>3</ele>
        <time>2019-03-19T21:53:19Z</time>
      </trkpt>
      <trkpt lat="47.81393" lon="-3.86951">
        <ele>3</ele>
        <time>2019-03-19T21:54:19Z</time>
      </trkpt>
      <trkpt lat="47.81348" lon="-3.86906">
        <ele>4</ele>
        <time>2019-03-19T21:55:19Z</time>
      </trkpt>
      <trkpt lat="47.81331" lon="-3.86888">
        <ele>4</ele>
        <time>2019-03-19T21:56:19Z</time>
      </trkpt>
      <trkpt lat="47.81305" lon="-3.86864">
        <ele>4</ele>
        <time>2019-03-19T21:57:19Z</time>
      </trkpt>
      <trkpt lat="47.81268" lon="-3.86808">
        <ele>4</ele>
        <time>2019-03-19T21:58:19Z</time>
      </trkpt>
      <trkpt lat="47.81257" lon="-3.86788">
        <ele>4</ele>
        <time>2019-03-19T21:59:19Z</time>
      </trkpt>
      <trkpt lat="47.81246" lon="-3.86754">
        <ele>4</ele>
        <time>2019-03-19T22:00:19Z</time>
      </trkpt>
      <trkpt lat="47.8123" lon="-3.86734">
        <ele>4</ele>
        <time>2019-03-19T22:01:19Z</time>
      </trkpt>
      <trkpt lat="47.81213" lon="-3.8672">
        <ele>3</ele>
        <time>2019-03-19T22:02:19Z</time>
      </trkpt>
      <trkpt lat="47.81208" lon="-3.86705">
        <ele>4</ele>
        <time>2019-03-19T22:03:19Z</time>
      </trkpt>
      <trkpt lat="47.81175" lon="-3.86671">
        <ele>4</ele>
        <time>2019-03-19T22:04:19Z</time>
      </trkpt>
      <trkpt lat="47.81167" lon="-3.86665">
        <ele>4</ele>
        <time>2019-03-19T22:05:19Z</time>
      </trkpt>
      <trkpt lat="47.8118" lon="-3.86676">
        <ele>4</ele>
        <time>2019-03-19T22:06:19Z</time>
      </trkpt>
      <trkpt lat="47.81186" lon="-3.86607">
        <ele>4</ele>
        <time>2019-03-19T22:07:19Z</time>
      </trkpt>
      <trkpt lat="47.81185" lon="-3.86596">
        <ele>4</ele>
        <time>2019-03-19T22:08:19Z</time>
      </trkpt>
      <trkpt lat="47.81188" lon="-3.86581">
        <ele>4</ele>
        <time>2019-03-19T22:09:19Z</time>
      </trkpt>
      <trkpt lat="47.81192" lon="-3.86569">
        <ele>4</ele>
        <time>2019-03-19T22:10:19Z</time>
      </trkpt>
      <trkpt lat="47.81205" lon="-3.8655">
        <ele>4</ele>
        <time>2019-03-19T22:11:19Z</time>
      </trkpt>
      <trkpt lat="47.81208" lon="-3.86541">
        <ele>4</ele>
        <time>2019-03-19T22:12:19Z</time>
      </trkpt>
      <trkpt lat="47.81225" lon="-3.8652">
        <ele>4</ele>
        <time>2019-03-19T22:13:19Z</time>
      </trkpt>
      <trkpt lat="47.81228" lon="-3.865">
        <ele>4</ele>
        <time>2019-03-19T22:14:19Z</time>
      </trkpt>
      <trkpt lat="47.81222" lon="-3.86461">
        <ele>4</ele>
        <time>2019-03-19T22:15:19Z</time>
      </trkpt>
      <trkpt lat="47.81228" lon="-3.86428">
        <ele>5</ele>
        <time>2019-03-19T22:16:19Z</time>
      </trkpt>
      <trkpt lat="47.81256" lon="-3.8636">
        <ele>6</ele>
        <time>2019-03-19T22:17:19Z</time>
      </trkpt>
      <trkpt lat="47.81279" lon="-3.8629">
        <ele>7</ele>
        <time>2019-03-19T22:18:19Z</time>
      </trkpt>
      <trkpt lat="47.81286" lon="-3.8628">
        <ele>7</ele>
        <time>2019-03-19T22:19:19Z</time>
      </trkpt>
      <trkpt lat="47.81299" lon="-3.86268">
        <ele>7</ele>
        <time>2019-03-19T22:20:19Z</time>
      </trkpt>
      <trkpt lat="47.81311" lon="-3.86267">
        <ele>7</ele>
        <time>2019-03-19T22:21:19Z</time>
      </trkpt>
      <trkpt lat="47.81371" lon="-3.86251">
        <ele>7</ele>
        <time>2019-03-19T22:22:19Z</time>
      </trkpt>
      <trkpt lat="47.81379" lon="-3.86238">
        <ele>8</ele>
        <time>2019-03-19T22:23:19Z</time>
      </trkpt>
      <trkpt lat="47.8138" lon="-3.86223">
        <ele>8</ele>
        <time>2019-03-19T22:24:19Z</time>
      </trkpt>
      <trkpt lat="47.81378" lon="-3.86144">
        <ele>9</ele>
        <time>2019-03-19T22:25:19Z</time>
      </trkpt>
      <trkpt lat="47.81415" lon="-3.86151">
        <ele>9</ele>
        <time>2019-03-19T22:26:19Z</time>
      </trkpt>
      <trkpt lat="47.81535" lon="-3.86184">
        <ele>12</ele>
        <time>2019-03-19T22:27:19Z</time>
      </trkpt>
      <trkpt lat="47.81625" lon="-3.862">
        <ele>14</ele>
        <time>2019-03-19T22:28:19Z</time>
      </trkpt>
      <trkpt lat="47.81661" lon="-3.86204">
        <ele>14</ele>
        <time>2019-03-19T22:29:19Z</time>
      </trkpt>
      <trkpt lat="47.8168" lon="-3.86203">
        <ele>14</ele>
        <time>2019-03-19T22:30:19Z</time>
      </trkpt>
      <trkpt lat="47.81715" lon="-3.86192">
        <ele>15</ele>
        <time>2019-03-19T22:31:19Z</time>
      </trkpt>
      <trkpt lat="47.81736" lon="-3.86179">
        <ele>15</ele>
        <time>2019-03-19T22:32:19Z</time>
      </trkpt>
      <trkpt lat="47.81769" lon="-3.8615">
        <ele>16</ele>
        <time>2019-03-19T22:33:19Z</time>
      </trkpt>
      <trkpt lat="47.81793" lon="-3.8612">
        <ele>17</ele>
        <time>2019-03-19T22:34:19Z</time>
      </trkpt>
      <trkpt lat="47.81829" lon="-3.86159">
        <ele>16</ele>
        <time>2019-03-19T22:35:19Z</time>
      </trkpt>
      <trkpt lat="47.81825" lon="-3.8617">
        <ele>16</ele>
        <time>2019-03-19T22:36:19Z</time>
      </trkpt>
      <trkpt lat="47.81789" lon="-3.8624">
        <ele>14</ele>
        <time>2019-03-19T22:37:19Z</time>
      </trkpt>
      <trkpt lat="47.8179" lon="-3.86248">
        <ele>14</ele>
        <time>2019-03-19T22:38:19Z</time>
      </trkpt>
      <trkpt lat="47.81793" lon="-3.86254">
        <ele>13</ele>
        <time>2019-03-19T22:39:19Z</time>
      </trkpt>
      <trkpt lat="47.81828" lon="-3.863">
        <ele>12</ele>
        <time>2019-03-19T22:40:19Z</time>
      </trkpt>
      <trkpt lat="47.81832" lon="-3.8631">
        <ele>12</ele>
        <time>2019-03-19T22:41:19Z</time>
      </trkpt>
      <trkpt lat="47.81831" lon="-3.86328">
        <ele>11</ele>
        <time>2019-03-19T22:42:19Z</time>
      </trkpt>
      <trkpt lat="47.81719" lon="-3.86567">
        <ele>11</ele>
        <time>2019-03-19T22:43:19Z</time>
      </trkpt>
      <trkpt lat="47.8161" lon="-3.86859">
        <ele>9</ele>
        <time>2019-03-19T22:44:19Z</time>
      </trkpt>
      <trkpt lat="47.81597" lon="-3.86931">
        <ele>7</ele>
        <time>2019-03-19T22:45:19Z</time>
      </trkpt>
      <trkpt lat="47.81577" lon="-3.87006">
        <ele>5</ele>
        <time>2019-03-19T22:46:19Z</time>
      </trkpt>
      <trkpt lat="47.8156" lon="-3.87054">
        <ele>4</ele>
        <time>2019-03-19T22:47:19Z</time>
      </trkpt>
      <trkpt lat="47.81553" lon="-3.87088">
        <ele>3</ele>
        <time>2019-03-19T22:48:19Z</time>
      </trkpt>
      <trkpt lat="47.81548" lon="-3.871">
        <ele>3</ele>
        <time>2019-03-19T22:49:19Z</time>
      </trkpt>
      <trkpt lat="47.81579" lon="-3.87158">
        <ele>4</ele>
        <time>2019-03-19T22:50:19Z</time>
      </trkpt>
      <trkpt lat="47.81625" lon="-3.87212">
        <ele>3</ele>
        <time>2019-03-19T22:51:19Z</time>
      </trkpt>
      <trkpt lat="47.81685" lon="-3.87291">
        <ele>2</ele>
        <time>2019-03-19T22:52:19Z</time>
      </trkpt>
      <trkpt lat="47.8176" lon="-3.87421">
        <ele>2</ele>
        <time>2019-03-19T22:53:19Z</time>
      </trkpt>
      <trkpt lat="47.81845" lon="-3.87523">
        <ele>3</ele>
        <time>2019-03-19T22:54:19Z</time>
      </trkpt>
      <trkpt lat="47.82004" lon="-3.87725">
        <ele>1</ele>
        <time>2019-03-19T22:55:19Z</time>
      </trkpt>
      <trkpt lat="47.82064" lon="-3.87779">
        <ele>1</ele>
        <time>2019-03-19T22:56:19Z</time>
      </trkpt>
      <trkpt lat="47.82179" lon="-3.87856">
        <ele>3</ele>
        <time>2019-03-19T22:57:19Z</time>
      </trkpt>
      <trkpt lat="47.82194" lon="-3.8791">
        <ele>3</ele>
        <time>2019-03-19T22:58:19Z</time>
      </trkpt>
      <trkpt lat="47.82215" lon="-3.87913">
        <ele>4</ele>
        <time>2019-03-19T22:59:19Z</time>
      </trkpt>
      <trkpt lat="47.82257" lon="-3.87975">
        <ele>5</ele>
        <time>2019-03-19T23:00:19Z</time>
      </trkpt>
      <trkpt lat="47.82279" lon="-3.88013">
        <ele>5</ele>
        <time>2019-03-19T23:01:19Z</time>
      </trkpt>
      <trkpt lat="47.8231" lon="-3.88072">
        <ele>4</ele>
        <time>2019-03-19T23:02:19Z</time>
      </trkpt>
      <trkpt lat="47.82323" lon="-3.88113">
        <ele>3</ele>
        <time>2019-03-19T23:03:19Z</time>
      </trkpt>
      <trkpt lat="47.8233" lon="-3.88204">
        <ele>2</ele>
        <time>2019-03-19T23:04:19Z</time>
      </trkpt>
      <trkpt lat="47.82339" lon="-3.88243">
        <ele>2</ele>
        <time>2019-03-19T23:05:19Z</time>
      </trkpt>
      <trkpt lat="47.82337" lon="-3.88259">
        <ele>2</ele>
        <time>2019-03-19T23:06:19Z</time>
      </trkpt>
      <trkpt lat="47.8238" lon="-3.88348">
        <ele>3</ele>
        <time>2019-03-19T23:07:19Z</time>
      </trkpt>
      <trkpt lat="47.82402" lon="-3.88358">
        <ele>4</ele>
        <time>2019-03-19T23:08:19Z</time>
      </trkpt>
      <trkpt lat="47.82516" lon="-3.88365">
        <ele>6</ele>
        <time>2019-03-19T23:09:19Z</time>
      </trkpt>
      <trkpt lat="47.82529" lon="-3.88388">
        <ele>6</ele>
        <time>2019-03-19T23:10:19Z</time>
      </trkpt>
      <trkpt lat="47.82547" lon="-3.88414">
        <ele>7</ele>
        <time>2019-03-19T23:11:19Z</time>
      </trkpt>
      <trkpt lat="47.82618" lon="-3.88452">
        <ele>4</ele>
        <time>2019-03-19T23:12:19Z</time>
      </trkpt>
      <trkpt lat="47.82667" lon="-3.8847">
        <ele>3</ele>
        <time>2019-03-19T23:13:19Z</time>
      </trkpt>
      <trkpt lat="47.8268" lon="-3.88448">
        <ele>4</ele>
        <time>2019-03-19T23:14:19Z</time>
      </trkpt>
      <trkpt lat="47.82713" lon="-3.88468">
        <ele>4</ele>
        <time>2019-03-19T23:15:19Z</time>
      </trkpt>
      <trkpt lat="47.82731" lon="-3.88477">
        <ele>4</ele>
        <time>2019-03-19T23:16:19Z</time>
      </trkpt>
      <trkpt lat="47.8278" lon="-3.88533">
        <ele>5</ele>
        <time>2019-03-19T23:17:19Z</time>
      </trkpt>
      <trkpt lat="47.828" lon="-3.88554">
        <ele>5</ele>
        <time>2019-03-19T23:18:19Z</time>
      </trkpt>
      <trkpt lat="47.8286" lon="-3.88663">
        <ele>5</ele>
        <time>2019-03-19T23:19:19Z</time>
      </trkpt>
      <trkpt lat="47.82893" lon="-3.88732">
        <ele>4</ele>
        <time>2019-03-19T23:20:19Z</time>
      </trkpt>
      <trkpt lat="47.8291" lon="-3.88756">
        <ele>5</ele>
        <time>2019-03-19T23:21:19Z</time>
      </trkpt>
      <trkpt lat="47.8294" lon="-3.88784">
        <ele>5</ele>
        <time>2019-03-19T23:22:19Z</time>
      </trkpt>
      <trkpt lat="47.8294" lon="-3.88807">
        <ele>4</ele>
        <time>2019-03-19T23:23:19Z</time>
      </trkpt>
      <trkpt lat="47.82962" lon="-3.8885">
        <ele>4</ele>
        <time>2019-03-19T23:24:19Z</time>
      </trkpt>
      <trkpt lat="47.82966" lon="-3.88889">
        <ele>4</ele>
        <time>2019-03-19T23:25:19Z</time>
      </trkpt>
      <trkpt lat="47.82991" lon="-3.88971">
        <ele>3</ele>
        <time>2019-03-19T23:26:19Z</time>
      </trkpt>
      <trkpt lat="47.83011" lon="-3.89005">
        <ele>3</ele>
        <time>2019-03-19T23:27:19Z</time>
      </trkpt>
      <trkpt lat="47.83041" lon="-3.89074">
        <ele>3</ele>
        <time>2019-03-19T23:28:19Z</time>
      </trkpt>
      <trkpt lat="47.83075" lon="-3.89095">
        <ele>3</ele>
        <time>2019-03-19T23:29:19Z</time>
      </trkpt>
      <trkpt lat="47.83069" lon="-3.89114">
        <ele>3</ele>
        <time>2019-03-19T23:30:19Z</time>
      </trkpt>
      <trkpt lat="47.83068" lon="-3.89143">
        <ele>2</ele>
        <time>2019-03-19T23:31:19Z</time>
      </trkpt>
      <trkpt lat="47.83072" lon="-3.89167">
        <ele>2</ele>
        <time>2019-03-19T23:32:19Z</time>
      </trkpt>
      <trkpt lat="47.83079" lon="-3.89189">
        <ele>2</ele>
        <time>2019-03-19T23:33:19Z</time>
      </trkpt>
      <trkpt lat="47.8309" lon="-3.89193">
        <ele>2</ele>
        <time>2019-03-19T23:34:19Z</time>
      </trkpt>
      <trkpt lat="47.83111" lon="-3.89185">
        <ele>2</ele>
        <time>2019-03-19T23:35:19Z</time>
      </trkpt>
      <trkpt lat="47.83117" lon="-3.89174">
        <ele>3</ele>
        <time>2019-03-19T23:36:19Z</time>
      </trkpt>
      <trkpt lat="47.83129" lon="-3.89136">
        <ele>3</ele>
        <time>2019-03-19T23:37:19Z</time>
      </trkpt>
      <trkpt lat="47.83133" lon="-3.89099">
        <ele>4</ele>
        <time>2019-03-19T23:38:19Z</time>
      </trkpt>
      <trkpt lat="47.83159" lon="-3.89097">
        <ele>4</ele>
        <time>2019-03-19T23:39:19Z</time>
      </trkpt>
      <trkpt lat="47.83216" lon="-3.89157">
        <ele>6</ele>
        <time>2019-03-19T23:40:19Z</time>
      </trkpt>
      <trkpt lat="47.83226" lon="-3.89166">
        <ele>6</ele>
        <time>2019-03-19T23:41:19Z</time>
      </trkpt>
      <trkpt lat="47.83269" lon="-3.89222">
        <ele>5</ele>
        <time>2019-03-19T23:42:19Z</time>
      </trkpt>
      <trkpt lat="47.83287" lon="-3.89242">
        <ele>5</ele>
        <time>2019-03-19T23:43:19Z</time>
      </trkpt>
      <trkpt lat="47.83339" lon="-3.89272">
        <ele>5</ele>
        <time>2019-03-19T23:44:19Z</time>
      </trkpt>
      <trkpt lat="47.83359" lon="-3.8928">
        <ele>5</ele>
        <time>2019-03-19T23:45:19Z</time>
      </trkpt>
      <trkpt lat="47.83367" lon="-3.89279">
        <ele>5</ele>
        <time>2019-03-19T23:46:19Z</time>
      </trkpt>
      <trkpt lat="47.83403" lon="-3.89232">
        <ele>7</ele>
        <time>2019-03-19T23:47:19Z</time>
      </trkpt>
      <trkpt lat="47.83421" lon="-3.89222">
        <ele>7</ele>
        <time>2019-03-19T23:48:19Z</time>
      </trkpt>
      <trkpt lat="47.83432" lon="-3.89227">
        <ele>7</ele>
        <time>2019-03-19T23:49:19Z</time>
      </trkpt>
      <trkpt lat="47.8349" lon="-3.89164">
        <ele>7</ele>
        <time>2019-03-19T23:50:19Z</time>
      </trkpt>
      <trkpt lat="47.83565" lon="-3.89074">
        <ele>9</ele>
        <time>2019-03-19T23:51:19Z</time>
      </trkpt>
      <trkpt lat="47.83626" lon="-3.89008">
        <ele>10</ele>
        <time>2019-03-19T23:52:19Z</time>
      </trkpt>
      <trkpt lat="47.83639" lon="-3.88997">
        <ele>10</ele>
        <time>2019-03-19T23:53:19Z</time>
      </trkpt>
      <trkpt lat="47.83641" lon="-3.89002">
        <ele>10</ele>
        <time>2019-03-19T23:54:19Z</time>
      </trkpt>
      <trkpt lat="47.83644" lon="-3.89004">
        <ele>10</ele>
        <time>2019-03-19T23:55:19Z</time>
      </trkpt>
      <trkpt lat="47.8365" lon="-3.89">
        <ele>10</ele>
        <time>2019-03-19T23:56:19Z</time>
      </trkpt>
      <trkpt lat="47.83655" lon="-3.89023">
        <ele>10</ele>
        <time>2019-03-19T23:57:19Z</time>
      </trkpt>
      <trkpt lat="47.83758" lon="-3.8922">
        <ele>8</ele>
        <time>2019-03-19T23:58:19Z</time>
      </trkpt>
      <trkpt lat="47.83788" lon="-3.89275">
        <ele>8</ele>
        <time>2019-03-19T23:59:19Z</time>
      </trkpt>
      <trkpt lat="47.83805" lon="-3.89302">
        <ele>8</ele>
        <time>2019-03-20T00:00:19Z</time>
      </trkpt>
      <trkpt lat="47.83835" lon="-3.89336">
        <ele>9</ele>
        <time>2019-03-20T00:01:19Z</time>
      </trkpt>
      <trkpt lat="47.83852" lon="-3.89352">
        <ele>9</ele>
        <time>2019-03-20T00:02:19Z</time>
      </trkpt>
      <trkpt lat="47.83892" lon="-3.8938">
        <ele>10</ele>
        <time>2019-03-20T00:03:19Z</time>
      </trkpt>
      <trkpt lat="47.84045" lon="-3.89472">
        <ele>9</ele>
        <time>2019-03-20T00:04:19Z</time>
      </trkpt>
      <trkpt lat="47.84083" lon="-3.8949">
        <ele>8</ele>
        <time>2019-03-20T00:05:19Z</time>
      </trkpt>
      <trkpt lat="47.84111" lon="-3.89419">
        <ele>8</ele>
        <time>2019-03-20T00:06:19Z</time>
      </trkpt>
      <trkpt lat="47.84151" lon="-3.89346">
        <ele>7</ele>
        <time>2019-03-20T00:07:19Z</time>
      </trkpt>
      <trkpt lat="47.84163" lon="-3.89342">
        <ele>7</ele>
        <time>2019-03-20T00:08:19Z</time>
      </trkpt>
      <trkpt lat="47.84169" lon="-3.89337">
        <ele>7</ele>
        <time>2019-03-20T00:09:19Z</time>
      </trkpt>
      <trkpt lat="47.84179" lon="-3.89321">
        <ele>7</ele>
        <time>2019-03-20T00:10:19Z</time>
      </trkpt>
      <trkpt lat="47.84193" lon="-3.89293">
        <ele>7</ele>
        <time>2019-03-20T00:11:19Z</time>
      </trkpt>
      <trkpt lat="47.84201" lon="-3.8927">
        <ele>7</ele>
        <time>2019-03-20T00:12:19Z</time>
      </trkpt>
      <trkpt lat="47.84201" lon="-3.89251">
        <ele>8</ele>
        <time>2019-03-20T00:13:19Z</time>
      </trkpt>
      <trkpt lat="47.84207" lon="-3.89239">
        <ele>8</ele>
        <time>2019-03-20T00:14:19Z</time>
      </trkpt>
      <trkpt lat="47.84297" lon="-3.89094">
        <ele>9</ele>
        <time>2019-03-20T00:15:19Z</time>
      </trkpt>
      <trkpt lat="47.84327" lon="-3.89041">
        <ele>9</ele>
        <time>2019-03-20T00:16:19Z</time>
      </trkpt>
      <trkpt lat="47.84388" lon="-3.88941">
        <ele>9</ele>
        <time>2019-03-20T00:17:19Z</time>
      </trkpt>
      <trkpt lat="47.84427" lon="-3.88988">
        <ele>8</ele>
        <time>2019-03-20T00:18:19Z</time>
      </trkpt>
      <trkpt lat="47.8447" lon="-3.89018">
        <ele>8</ele>
        <time>2019-03-20T00:19:19Z</time>
      </trkpt>
      <trkpt lat="47.84473" lon="-3.89021">
        <ele>7</ele>
        <time>2019-03-20T00:20:19Z</time>
      </trkpt>
      <trkpt lat="47.84479" lon="-3.89034">
        <ele>7</ele>
        <time>2019-03-20T00:21:19Z</time>
      </trkpt>
      <trkpt lat="47.84484" lon="-3.89055">
        <ele>6</ele>
        <time>2019-03-20T00:22:19Z</time>
      </trkpt>
      <trkpt lat="47.84489" lon="-3.89089">
        <ele>5</ele>
        <time>2019-03-20T00:23:19Z</time>
      </trkpt>
      <trkpt lat="47.84496" lon="-3.89111">
        <ele>4</ele>
        <time>2019-03-20T00:24:19Z</time>
      </trkpt>
      <trkpt lat="47.84503" lon="-3.89124">
        <ele>4</ele>
        <time>2019-03-20T00:25:19Z</time>
      </trkpt>
      <trkpt lat="47.84509" lon="-3.89128">
        <ele>3</ele>
        <time>2019-03-20T00:26:19Z</time>
      </trkpt>
      <trkpt lat="47.84517" lon="-3.89131">
        <ele>3</ele>
        <time>2019-03-20T00:27:19Z</time>
      </trkpt>
      <trkpt lat="47.84525" lon="-3.89128">
        <ele>3</ele>
        <time>2019-03-20T00:28:19Z</time>
      </trkpt>
      <trkpt lat="47.84543" lon="-3.89115">
        <ele>4</ele>
        <time>2019-03-20T00:29:19Z</time>
      </trkpt>
      <trkpt lat="47.84557" lon="-3.89102">
        <ele>5</ele>
        <time>2019-03-20T00:30:19Z</time>
      </trkpt>
      <trkpt lat="47.84568" lon="-3.89105">
        <ele>5</ele>
        <time>2019-03-20T00:31:19Z</time>
      </trkpt>
      <trkpt lat="47.84582" lon="-3.89096">
        <ele>5</ele>
        <time>2019-03-20T00:32:19Z</time>
      </trkpt>
      <trkpt lat="47.84607" lon="-3.89072">
        <ele>6</ele>
        <time>2019-03-20T00:33:19Z</time>
      </trkpt>
      <trkpt lat="47.84632" lon="-3.89062">
        <ele>5</ele>
        <time>2019-03-20T00:34:19Z</time>
      </trkpt>
      <trkpt lat="47.84656" lon="-3.89047">
        <ele>5</ele>
        <time>2019-03-20T00:35:19Z</time>
      </trkpt>
      <trkpt lat="47.84721" lon="-3.89067">
        <ele>3</ele>
        <time>2019-03-20T00:36:19Z</time>
      </trkpt>
      <trkpt lat="47.84759" lon="-3.89109">
        <ele>2</ele>
        <time>2019-03-20T00:37:19Z</time>
      </trkpt>
      <trkpt lat="47.8477" lon="-3.8911">
        <ele>2</ele>
        <time>2019-03-20T00:38:19Z</time>
      </trkpt>
      <trkpt lat="47.84779" lon="-3.89098">
        <ele>2</ele>
        <time>2019-03-20T00:39:19Z</time>
      </trkpt>
      <trkpt lat="47.84783" lon="-3.89081">
        <ele>2</ele>
        <time>2019-03-20T00:40:19Z</time>
      </trkpt>
      <trkpt lat="47.84781" lon="-3.89062">
        <ele>2</ele>
        <time>2019-03-20T00:41:19Z</time>
      </trkpt>
      <trkpt lat="47.84778" lon="-3.89052">
        <ele>2</ele>
        <time>2019-03-20T00:42:19Z</time>
      </trkpt>
      <trkpt lat="47.84769" lon="-3.89048">
        <ele>3</ele>
        <time>2019-03-20T00:43:19Z</time>
      </trkpt>
      <trkpt lat="47.8476" lon="-3.89025">
        <ele>3</ele>
        <time>2019-03-20T00:44:19Z</time>
      </trkpt>
      <trkpt lat="47.84761" lon="-3.88978">
        <ele>4</ele>
        <time>2019-03-20T00:45:19Z</time>
      </trkpt>
      <trkpt lat="47.84773" lon="-3.88938">
        <ele>4</ele>
        <time>2019-03-20T00:46:19Z</time>
      </trkpt>
      <trkpt lat="47.84791" lon="-3.889">
        <ele>4</ele>
        <time>2019-03-20T00:47:19Z</time>
      </trkpt>
      <trkpt lat="47.848" lon="-3.88893">
        <ele>4</ele>
        <time>2019-03-20T00:48:19Z</time>
      </trkpt>
      <trkpt lat="47.84829" lon="-3.88882">
        <ele>3</ele>
        <time>2019-03-20T00:49:19Z</time>
      </trkpt>
      <trkpt lat="47.84847" lon="-3.88881">
        <ele>2</ele>
        <time>2019-03-20T00:50:19Z</time>
      </trkpt>
      <trkpt lat="47.84848" lon="-3.88875">
        <ele>2</ele>
        <time>2019-03-20T00:51:19Z</time>
      </trkpt>
      <trkpt lat="47.84844" lon="-3.88865">
        <ele>2</ele>
        <time>2019-03-20T00:52:19Z</time>
      </trkpt>
      <trkpt lat="47.84849" lon="-3.88821">
        <ele>3</ele>
        <time>2019-03-20T00:53:19Z</time>
      </trkpt>
      <trkpt lat="47.84848" lon="-3.88789">
        <ele>4</ele>
        <time>2019-03-20T00:54:19Z</time>
      </trkpt>
      <trkpt lat="47.84853" lon="-3.88718">
        <ele>5</ele>
        <time>2019-03-20T00:55:19Z</time>
      </trkpt>
      <trkpt lat="47.84842" lon="-3.88685">
        <ele>6</ele>
        <time>2019-03-20T00:56:19Z</time>
      </trkpt>
      <trkpt lat="47.84843" lon="-3.88673">
        <ele>6</ele>
        <time>2019-03-20T00:57:19Z</time>
      </trkpt>
      <trkpt lat="47.84858" lon="-3.8866">
        <ele>5</ele>
        <time>2019-03-20T00:58:19Z</time>
      </trkpt>
      <trkpt lat="47.84879" lon="-3.88624">
        <ele>5</ele>
        <time>2019-03-20T00:59:19Z</time>
      </trkpt>
      <trkpt lat="47.84885" lon="-3.88618">
        <ele>4</ele>
        <time>2019-03-20T01:00:19Z</time>
      </trkpt>
      <trkpt lat="47.84918" lon="-3.88643">
        <ele>4</ele>
        <time>2019-03-20T01:01:19Z</time>
      </trkpt>
      <trkpt lat="47.84924" lon="-3.88654">
        <ele>4</ele>
        <time>2019-03-20T01:02:19Z</time>
      </trkpt>
      <trkpt lat="47.84959" lon="-3.88678">
        <ele>5</ele>
        <time>2019-03-20T01:03:19Z</time>
      </trkpt>
      <trkpt lat="47.8497" lon="-3.88681">
        <ele>5</ele>
        <time>2019-03-20T01:04:19Z</time>
      </trkpt>
      <trkpt lat="47.84997" lon="-3.88671">
        <ele>6</ele>
        <time>2019-03-20T01:05:19Z</time>
      </trkpt>
      <trkpt lat="47.85005" lon="-3.88661">
        <ele>6</ele>
        <time>2019-03-20T01:06:19Z</time>
      </trkpt>
      <trkpt lat="47.8502" lon="-3.88618">
        <ele>8</ele>
        <time>2019-03-20T01:07:19Z</time>
      </trkpt>
      <trkpt lat="47.85025" lon="-3.88616">
        <ele>8</ele>
        <time>2019-03-20T01:08:19Z</time>
      </trkpt>
      <trkpt lat="47.85034" lon="-3.88619">
        <ele>9</ele>
        <time>2019-03-20T01:09:19Z</time>
      </trkpt>
      <trkpt lat="47.85126" lon="-3.88698">
        <ele>13</ele>
        <time>2019-03-20T01:10:19Z</time>
      </trkpt>
      <trkpt lat="47.85226" lon="-3.88749">
        <ele>13</ele>
        <time>2019-03-20T01:11:19Z</time>
      </trkpt>
      <trkpt lat="47.85236" lon="-3.88752">
        <ele>13</ele>
        <time>2019-03-20T01:12:19Z</time>
      </trkpt>
      <trkpt lat="47.85235" lon="-3.88777">
        <ele>13</ele>
        <time>2019-03-20T01:13:19Z</time>
      </trkpt>
      <trkpt lat="47.85246" lon="-3.88774">
        <ele>13</ele>
        <time>2019-03-20T01:14:19Z</time>
      </trkpt>
      <trkpt lat="47.85274" lon="-3.88775">
        <ele>11</ele>
        <time>2019-03-20T01:15:19Z</time>
      </trkpt>
      <trkpt lat="47.85283" lon="-3.88774">
        <ele>11</ele>
        <time>2019-03-20T01:16:19Z</time>
      </trkpt>
      <trkpt lat="47.85295" lon="-3.88769">
        <ele>10</ele>
        <time>2019-03-20T01:17:19Z</time>
      </trkpt>
      <trkpt lat="47.85358" lon="-3.88765">
        <ele>7</ele>
        <time>2019-03-20T01:18:19Z</time>
      </trkpt>
      <trkpt lat="47.85372" lon="-3.88737">
        <ele>7</ele>
        <time>2019-03-20T01:19:19Z</time>
      </trkpt>
      <trkpt lat="47.85393" lon="-3.88763">
        <ele>6</ele>
        <time>2019-03-20T01:20:19Z</time>
      </trkpt>
      <trkpt lat="47.85426" lon="-3.88776">
        <ele>5</ele>
        <time>2019-03-20T01:21:19Z</time>
      </trkpt>
      <trkpt lat="47.85462" lon="-3.88804">
        <ele>4</ele>
        <time>2019-03-20T01:22:19Z</time>
      </trkpt>
      <trkpt lat="47.85473" lon="-3.88774">
        <ele>4</ele>
        <time>2019-03-20T01:23:19Z</time>
      </trkpt>
      <trkpt lat="47.85491" lon="-3.88781">
        <ele>4</ele>
        <time>2019-03-20T01:24:19Z</time>
      </trkpt>
      <trkpt lat="47.855" lon="-3.88765">
        <ele>4</ele>
        <time>2019-03-20T01:25:19Z</time>
      </trkpt>
      <trkpt lat="47.85503" lon="-3.88741">
        <ele>5</ele>
        <time>2019-03-20T01:26:19Z</time>
      </trkpt>
      <trkpt lat="47.85491" lon="-3.88688">
        <ele>6</ele>
        <time>2019-03-20T01:27:19Z</time>
      </trkpt>
      <trkpt lat="47.8551" lon="-3.88661">
        <ele>6</ele>
        <time>2019-03-20T01:28:19Z</time>
      </trkpt>
      <trkpt lat="47.85528" lon="-3.88664">
        <ele>6</ele>
        <time>2019-03-20T01:29:19Z</time>
      </trkpt>
      <trkpt lat="47.85563" lon="-3.8863">
        <ele>7</ele>
        <time>2019-03-20T01:30:19Z</time>
      </trkpt>
      <trkpt lat="47.85591" lon="-3.88644">
        <ele>7</ele>
        <time>2019-03-20T01:31:19Z</time>
      </trkpt>
      <trkpt lat="47.85607" lon="-3.88637">
        <ele>6</ele>
        <time>2019-03-20T01:32:19Z</time>
      </trkpt>
      <trkpt lat="47.85616" lon="-3.88586">
        <ele>8</ele>
        <time>2019-03-20T01:33:19Z</time>
      </trkpt>
      <trkpt lat="47.85655" lon="-3.88549">
        <ele>9</ele>
        <time>2019-03-20T01:34:19Z</time>
      </trkpt>
      <trkpt lat="47.85675" lon="-3.88578">
        <ele>7</ele>
        <time>2019-03-20T01:35:19Z</time>
      </trkpt>
      <trkpt lat="47.85712" lon="-3.88578">
        <ele>6</ele>
        <time>2019-03-20T01:36:19Z</time>
      </trkpt>
      <trkpt lat="47.85713" lon="-3.88613">
        <ele>5</ele>
        <time>2019-03-20T01:37:19Z</time>
      </trkpt>
      <trkpt lat="47.85746" lon="-3.8867">
        <ele>4</ele>
        <time>2019-03-20T01:38:19Z</time>
      </trkpt>
      <trkpt lat="47.85758" lon="-3.88688">
        <ele>6</ele>
        <time>2019-03-20T01:39:19Z</time>
      </trkpt>
      <trkpt lat="47.85805" lon="-3.88741">
        <ele>10</ele>
        <time>2019-03-20T01:40:19Z</time>
      </trkpt>
      <trkpt lat="47.85769" lon="-3.88781">
        <ele>12</ele>
        <time>2019-03-20T01:41:19Z</time>
      </trkpt>
      <trkpt lat="47.85734" lon="-3.88876">
        <ele>16</ele>
        <time>2019-03-20T01:42:19Z</time>
      </trkpt>
      <trkpt lat="47.85715" lon="-3.88878">
        <ele>16</ele>
        <time>2019-03-20T01:43:19Z</time>
      </trkpt>
      <trkpt lat="47.85707" lon="-3.88875">
        <ele>16</ele>
        <time>2019-03-20T01:44:19Z</time>
      </trkpt>
      <trkpt lat="47.85696" lon="-3.88875">
        <ele>16</ele>
        <time>2019-03-20T01:45:19Z</time>
      </trkpt>
      <trkpt lat="47.8568" lon="-3.88879">
        <ele>15</ele>
        <time>2019-03-20T01:46:19Z</time>
      </trkpt>
      <trkpt lat="47.85663" lon="-3.88915">
        <ele>16</ele>
        <time>2019-03-20T01:47:19Z</time>
      </trkpt>
      <trkpt lat="47.85647" lon="-3.88935">
        <ele>16</ele>
        <time>2019-03-20T01:48:19Z</time>
      </trkpt>
      <trkpt lat="47.85618" lon="-3.88983">
        <ele>15</ele>
        <time>2019-03-20T01:49:19Z</time>
      </trkpt>
      <trkpt lat="47.85587" lon="-3.89039">
        <ele>14</ele>
        <time>2019-03-20T01:50:19Z</time>
      </trkpt>
      <trkpt lat="47.85551" lon="-3.89115">
        <ele>12</ele>
        <time>2019-03-20T01:51:19Z</time>
      </trkpt>
      <trkpt lat="47.85518" lon="-3.89219">
        <ele>11</ele>
        <time>2019-03-20T01:52:19Z</time>
      </trkpt>
      <trkpt lat="47.85494" lon="-3.89278">
        <ele>11</ele>
        <time>2019-03-20T01:53:19Z</time>
      </trkpt>
      <trkpt lat="47.85477" lon="-3.89312">
        <ele>10</ele>
        <time>2019-03-20T01:54:19Z</time>
      </trkpt>
      <trkpt lat="47.85463" lon="-3.89328">
        <ele>10</ele>
        <time>2019-03-20T01:55:19Z</time>
      </trkpt>
      <trkpt lat="47.85451" lon="-3.89344">
        <ele>9</ele>
        <time>2019-03-20T01:56:19Z</time>
      </trkpt>
      <trkpt lat="47.85437" lon="-3.89382">
        <ele>8</ele>
        <time>2019-03-20T01:57:19Z</time>
      </trkpt>
      <trkpt lat="47.85429" lon="-3.89426">
        <ele>8</ele>
        <time>2019-03-20T01:58:19Z</time>
      </trkpt>
      <trkpt lat="47.85427" lon="-3.89446">
        <ele>7</ele>
        <time>2019-03-20T01:59:19Z</time>
      </trkpt>
      <trkpt lat="47.85421" lon="-3.89479">
        <ele>7</ele>
        <time>2019-03-20T02:00:19Z</time>
      </trkpt>
      <trkpt lat="47.85421" lon="-3.89512">
        <ele>7</ele>
        <time>2019-03-20T02:01:19Z</time>
      </trkpt>
      <trkpt lat="47.85434" lon="-3.89558">
        <ele>8</ele>
        <time>2019-03-20T02:02:19Z</time>
      </trkpt>
      <trkpt lat="47.85433" lon="-3.8957">
        <ele>8</ele>
        <time>2019-03-20T02:03:19Z</time>
      </trkpt>
      <trkpt lat="47.85423" lon="-3.89596">
        <ele>7</ele>
        <time>2019-03-20T02:04:19Z</time>
      </trkpt>
      <trkpt lat="47.8545" lon="-3.89618">
        <ele>8</ele>
        <time>2019-03-20T02:05:19Z</time>
      </trkpt>
      <trkpt lat="47.85456" lon="-3.89635">
        <ele>9</ele>
        <time>2019-03-20T02:06:19Z</time>
      </trkpt>
      <trkpt lat="47.85486" lon="-3.89689">
        <ele>9</ele>
        <time>2019-03-20T02:07:19Z</time>
      </trkpt>
      <trkpt lat="47.85489" lon="-3.89687">
        <ele>9</ele>
        <time>2019-03-20T02:08:19Z</time>
      </trkpt>
      <trkpt lat="47.85512" lon="-3.89715">
        <ele>10</ele>
        <time>2019-03-20T02:09:19Z</time>
      </trkpt>
      <trkpt lat="47.85489" lon="-3.8976">
        <ele>9</ele>
        <time>2019-03-20T02:10:19Z</time>
      </trkpt>
      <trkpt lat="47.85479" lon="-3.89787">
        <ele>8</ele>
        <time>2019-03-20T02:11:19Z</time>
      </trkpt>
      <trkpt lat="47.85478" lon="-3.89832">
        <ele>8</ele>
        <time>2019-03-20T02:12:19Z</time>
      </trkpt>
      <trkpt lat="47.85467" lon="-3.89871">
        <ele>8</ele>
        <time>2019-03-20T02:13:19Z</time>
      </trkpt>
    </trkseg>
  </trk>
</gpx>